Wetterdaten: Mittwoch, 25.01.2023
Datum Zeit Temp. Aussen Temp. o. S. Temp +5cm Feuchte Auss Luftdruck Regen Sonnenschein Regendauer Solar Windben Empfang
25.01.2023 00:00 0,8 C 0,6 C -2,8 C 88 % 1038,2 hPa 0,0 l/m 0 min 0 min 0 W/m 6,4 km/h (2 Bft) 97,87 %
25.01.2023 00:02 0,8 C 0,6 C -2,8 C 88 % 1038,1 hPa 0,0 l/m 0 min 0 min 0 W/m 6,4 km/h (2 Bft) 97,22 %
25.01.2023 00:04 0,8 C 0,6 C -2,8 C 88 % 1038,1 hPa 0,0 l/m 0 min 0 min 0 W/m 3,2 km/h (1 Bft) 100,00 %
25.01.2023 00:07 0,8 C 0,6 C -2,8 C 87 % 1038,0 hPa 0,0 l/m 0 min 0 min 0 W/m 3,2 km/h (1 Bft) 98,63 %
25.01.2023 00:08 0,8 C 0,6 C -2,8 C 87 % 1038,0 hPa 0,0 l/m 0 min 0 min 0 W/m 6,4 km/h (2 Bft) 100,00 %
25.01.2023 00:12 0,7 C 0,0 C -2,8 C 87 % 1037,9 hPa 0,0 l/m 0 min 0 min 0 W/m 6,4 km/h (2 Bft) 100,00 %
25.01.2023 00:14 0,7 C 0,0 C -2,8 C 87 % 1037,9 hPa 0,0 l/m 0 min 0 min 0 W/m 3,2 km/h (1 Bft) 97,87 %
25.01.2023 00:16 0,7 C 0,0 C -2,8 C 87 % 1037,9 hPa 0,0 l/m 0 min 0 min 0 W/m 0,0 km/h (0 Bft) 95,74 %
25.01.2023 00:18 0,7 C 0,0 C -2,8 C 88 % 1037,9 hPa 0,0 l/m 0 min 0 min 0 W/m 0,0 km/h (0 Bft) 97,87 %
25.01.2023 00:20 0,7 C 0,0 C -2,8 C 88 % 1037,9 hPa 0,0 l/m 0 min 0 min 0 W/m 0,0 km/h (0 Bft) 93,62 %
25.01.2023 00:22 0,7 C 0,6 C -2,8 C 88 % 1037,9 hPa 0,0 l/m 0 min 0 min 0 W/m 3,2 km/h (1 Bft) 95,65 %
25.01.2023 00:24 0,7 C 0,0 C -2,8 C 88 % 1037,9 hPa 0,0 l/m 0 min 0 min 0 W/m 6,4 km/h (2 Bft) 95,74 %
25.01.2023 00:26 0,7 C 0,0 C -2,8 C 88 % 1037,9 hPa 0,0 l/m 0 min 0 min 0 W/m 6,4 km/h (2 Bft) 93,62 %
25.01.2023 00:28 0,7 C 0,0 C -2,8 C 88 % 1037,9 hPa 0,0 l/m 0 min 0 min 0 W/m 6,4 km/h (2 Bft) 93,62 %
25.01.2023 00:30 0,7 C 0,0 C -2,8 C 88 % 1037,9 hPa 0,0 l/m 0 min 0 min 0 W/m 3,2 km/h (1 Bft) 95,74 %
25.01.2023 00:32 0,7 C 0,0 C -2,8 C 88 % 1037,8 hPa 0,0 l/m 0 min 0 min 0 W/m 0,0 km/h (0 Bft) 93,62 %
25.01.2023 00:34 0,7 C 0,0 C -2,8 C 88 % 1037,8 hPa 0,0 l/m 0 min 0 min 0 W/m 0,0 km/h (0 Bft) 95,74 %
25.01.2023 00:36 0,7 C 0,0 C -2,8 C 88 % 1037,8 hPa 0,0 l/m 0 min 0 min 0 W/m 0,0 km/h (0 Bft) 93,48 %
25.01.2023 00:38 0,6 C 0,0 C -2,8 C 88 % 1037,8 hPa 0,0 l/m 0 min 0 min 0 W/m 0,0 km/h (0 Bft) 93,62 %
25.01.2023 00:40 0,7 C 0,0 C -2,8 C 88 % 1037,8 hPa 0,0 l/m 0 min 0 min 0 W/m 6,4 km/h (2 Bft) 95,74 %
25.01.2023 00:42 0,6 C 0,0 C -2,8 C 88 % 1037,8 hPa 0,0 l/m 0 min 0 min 0 W/m 9,7 km/h (2 Bft) 95,74 %
25.01.2023 00:44 0,6 C 0,0 C -2,8 C 88 % 1037,8 hPa 0,0 l/m 0 min 0 min 0 W/m 6,4 km/h (2 Bft) 87,23 %
25.01.2023 00:46 0,6 C 0,0 C -2,8 C 88 % 1037,8 hPa 0,0 l/m 0 min 0 min 0 W/m 6,4 km/h (2 Bft) 95,74 %
25.01.2023 00:48 0,6 C 0,0 C -2,8 C 88 % 1037,7 hPa 0,0 l/m 0 min 0 min 0 W/m 3,2 km/h (1 Bft) 91,49 %
25.01.2023 00:50 0,6 C 0,0 C -2,8 C 88 % 1037,7 hPa 0,0 l/m 0 min 0 min 0 W/m 3,2 km/h (1 Bft) 91,30 %
25.01.2023 00:52 0,6 C 0,0 C -2,8 C 88 % 1037,7 hPa 0,0 l/m 0 min 0 min 0 W/m 6,4 km/h (2 Bft) 91,49 %
25.01.2023 00:54 0,6 C 0,0 C -2,8 C 88 % 1037,7 hPa 0,0 l/m 0 min 0 min 0 W/m 3,2 km/h (1 Bft) 93,62 %
25.01.2023 00:56 0,6 C 0,0 C -2,8 C 88 % 1037,7 hPa 0,0 l/m 0 min 0 min 0 W/m 3,2 km/h (1 Bft) 95,74 %
25.01.2023 00:58 0,6 C 0,0 C -2,8 C 88 % 1037,7 hPa 0,0 l/m 0 min 0 min 0 W/m 6,4 km/h (2 Bft) 95,74 %
25.01.2023 01:00 0,6 C 0,0 C -2,8 C 88 % 1037,6 hPa 0,0 l/m 0 min 0 min 0 W/m 3,2 km/h (1 Bft) 95,74 %
25.01.2023 01:02 0,6 C 0,0 C -2,8 C 88 % 1037,6 hPa 0,0 l/m 0 min 0 min 0 W/m 6,4 km/h (2 Bft) 91,49 %
25.01.2023 01:04 0,6 C 0,0 C -2,8 C 88 % 1037,6 hPa 0,0 l/m 0 min 0 min 0 W/m 6,4 km/h (2 Bft) 93,48 %
25.01.2023 01:06 0,6 C 0,0 C -2,8 C 88 % 1037,5 hPa 0,0 l/m 0 min 0 min 0 W/m 3,2 km/h (1 Bft) 61,02 %
25.01.2023 01:08 0,6 C 0,0 C -2,8 C 88 % 1037,5 hPa 0,0 l/m 0 min 0 min 0 W/m 3,2 km/h (1 Bft) 97,14 %
25.01.2023 01:10 0,6 C 0,0 C -2,8 C 88 % 1037,4 hPa 0,0 l/m 0 min 0 min 0 W/m 6,4 km/h (2 Bft) 95,74 %
25.01.2023 01:12 0,6 C 0,0 C -2,8 C 88 % 1037,4 hPa 0,0 l/m 0 min 0 min 0 W/m 3,2 km/h (1 Bft) 93,62 %
25.01.2023 01:14 0,6 C 0,0 C -2,8 C 88 % 1037,4 hPa 0,0 l/m 0 min 0 min 0 W/m 3,2 km/h (1 Bft) 91,30 %
25.01.2023 01:16 0,6 C 0,0 C -2,8 C 88 % 1037,5 hPa 0,0 l/m 0 min 0 min 0 W/m 3,2 km/h (1 Bft) 95,74 %
25.01.2023 01:18 0,6 C 0,0 C -2,8 C 88 % 1037,4 hPa 0,0 l/m 0 min 0 min 0 W/m 3,2 km/h (1 Bft) 97,87 %
25.01.2023 01:20 0,6 C 0,0 C -2,8 C 88 % 1037,5 hPa 0,0 l/m 0 min 0 min 0 W/m 3,2 km/h (1 Bft) 97,87 %
25.01.2023 01:22 0,6 C 0,0 C -2,8 C 88 % 1037,5 hPa 0,0 l/m 0 min 0 min 0 W/m 3,2 km/h (1 Bft) 95,74 %
25.01.2023 01:24 0,6 C 0,0 C -2,8 C 88 % 1037,5 hPa 0,0 l/m 0 min 0 min 0 W/m 3,2 km/h (1 Bft) 100,00 %
25.01.2023 01:26 0,5 C 0,0 C -2,8 C 88 % 1037,4 hPa 0,0 l/m 0 min 0 min 0 W/m 3,2 km/h (1 Bft) 93,62 %
25.01.2023 01:28 0,5 C 0,0 C -2,8 C 89 % 1037,4 hPa 0,0 l/m 0 min 0 min 0 W/m 3,2 km/h (1 Bft) 97,83 %
25.01.2023 01:30 0,5 C 0,0 C -2,8 C 89 % 1037,4 hPa 0,0 l/m 0 min 0 min 0 W/m 3,2 km/h (1 Bft) 100,00 %
25.01.2023 01:32 0,5 C 0,0 C -2,8 C 89 % 1037,3 hPa 0,0 l/m 0 min 0 min 0 W/m 3,2 km/h (1 Bft) 97,87 %
25.01.2023 01:34 0,5 C 0,0 C -2,8 C 89 % 1037,3 hPa 0,0 l/m 0 min 0 min 0 W/m 9,7 km/h (2 Bft) 100,00 %
25.01.2023 01:36 0,5 C 0,0 C -2,8 C 89 % 1037,3 hPa 0,0 l/m 0 min 0 min 0 W/m 12,9 km/h (3 Bft) 100,00 %
25.01.2023 01:38 0,5 C 0,0 C -2,8 C 89 % 1037,3 hPa 0,0 l/m 0 min 0 min 0 W/m 3,2 km/h (1 Bft) 100,00 %
25.01.2023 01:40 0,5 C 0,0 C -2,8 C 89 % 1037,2 hPa 0,0 l/m 0 min 0 min 0 W/m 3,2 km/h (1 Bft) 100,00 %
25.01.2023 01:42 0,5 C 0,0 C -2,8 C 89 % 1037,2 hPa 0,0 l/m 0 min 0 min 0 W/m 3,2 km/h (1 Bft) 97,83 %
25.01.2023 01:44 0,5 C 0,0 C -2,8 C 89 % 1037,3 hPa 0,0 l/m 0 min 0 min 0 W/m 3,2 km/h (1 Bft) 100,00 %
25.01.2023 01:46 0,5 C 0,0 C -2,8 C 89 % 1037,2 hPa 0,0 l/m 0 min 0 min 0 W/m 3,2 km/h (1 Bft) 100,00 %
25.01.2023 01:48 0,5 C 0,0 C -2,8 C 89 % 1037,2 hPa 0,0 l/m 0 min 0 min 0 W/m 0,0 km/h (0 Bft) 100,00 %
25.01.2023 01:50 0,5 C 0,0 C -2,8 C 89 % 1037,1 hPa 0,0 l/m 0 min 0 min 0 W/m 0,0 km/h (0 Bft) 85,11 %
25.01.2023 01:52 0,5 C 0,0 C -2,8 C 89 % 1037,2 hPa 0,0 l/m 0 min 0 min 0 W/m 6,4 km/h (2 Bft) 58,97 %
25.01.2023 01:54 0,5 C 0,0 C -2,8 C 89 % 1037,1 hPa 0,0 l/m 0 min 0 min 0 W/m 0,0 km/h (0 Bft) 100,00 %
25.01.2023 01:56 0,5 C 0,0 C -2,8 C 89 % 1037,1 hPa 0,0 l/m 0 min 0 min 0 W/m 3,2 km/h (1 Bft) 100,00 %
25.01.2023 01:58 0,5 C 0,0 C -2,8 C 89 % 1037,1 hPa 0,0 l/m 0 min 0 min 0 W/m 6,4 km/h (2 Bft) 100,00 %
25.01.2023 02:00 0,5 C 0,0 C -2,8 C 89 % 1037,1 hPa 0,0 l/m 0 min 0 min 0 W/m 0,0 km/h (0 Bft) 100,00 %
25.01.2023 02:02 0,5 C 0,0 C -2,8 C 89 % 1037,1 hPa 0,0 l/m 0 min 0 min 0 W/m 3,2 km/h (1 Bft) 97,87 %
25.01.2023 02:04 0,5 C 0,0 C -2,8 C 89 % 1037,1 hPa 0,0 l/m 0 min 0 min 0 W/m 12,9 km/h (3 Bft) 100,00 %
25.01.2023 02:06 0,5 C 0,0 C -2,8 C 89 % 1037,1 hPa 0,0 l/m 0 min 0 min 0 W/m 3,2 km/h (1 Bft) 96,55 %
25.01.2023 02:08 0,5 C 0,0 C -2,8 C 89 % 1037,1 hPa 0,0 l/m 0 min 0 min 0 W/m 6,4 km/h (2 Bft) 94,29 %
25.01.2023 02:10 0,4 C 0,0 C -2,8 C 89 % 1037,1 hPa 0,0 l/m 0 min 0 min 0 W/m 6,4 km/h (2 Bft) 100,00 %
25.01.2023 02:12 0,4 C 0,0 C -2,8 C 89 % 1037,0 hPa 0,0 l/m 0 min 0 min 0 W/m 6,4 km/h (2 Bft) 100,00 %
25.01.2023 02:14 0,4 C 0,0 C -2,8 C 89 % 1037,0 hPa 0,0 l/m 0 min 0 min 0 W/m 3,2 km/h (1 Bft) 98,00 %
25.01.2023 02:16 0,4 C 0,0 C -2,8 C 89 % 1037,0 hPa 0,0 l/m 0 min 0 min 0 W/m 3,2 km/h (1 Bft) 95,74 %
25.01.2023 02:18 0,4 C 0,0 C -2,8 C 89 % 1037,0 hPa 0,0 l/m 0 min 0 min 0 W/m 3,2 km/h (1 Bft) 100,00 %
25.01.2023 02:20 0,4 C 0,0 C -2,8 C 89 % 1037,0 hPa 0,0 l/m 0 min 0 min 0 W/m 9,7 km/h (2 Bft) 100,00 %
25.01.2023 02:22 0,5 C 0,0 C -2,8 C 89 % 1037,0 hPa 0,0 l/m 0 min 0 min 0 W/m 6,4 km/h (2 Bft) 97,87 %
25.01.2023 02:24 0,4 C 0,0 C -2,8 C 89 % 1037,0 hPa 0,0 l/m 0 min 0 min 0 W/m 9,7 km/h (2 Bft) 95,74 %
25.01.2023 02:26 0,4 C 0,0 C -2,8 C 89 % 1037,0 hPa 0,0 l/m 0 min 0 min 0 W/m 3,2 km/h (1 Bft) 97,87 %
25.01.2023 02:28 0,4 C 0,0 C -2,8 C 89 % 1037,1 hPa 0,0 l/m 0 min 0 min 0 W/m 6,4 km/h (2 Bft) 97,87 %
25.01.2023 02:30 0,4 C 0,0 C -2,8 C 89 % 1037,1 hPa 0,0 l/m 0 min 0 min 0 W/m 6,4 km/h (2 Bft) 100,00 %
25.01.2023 02:32 0,4 C 0,0 C -2,8 C 89 % 1037,1 hPa 0,0 l/m 0 min 0 min 0 W/m 3,2 km/h (1 Bft) 97,83 %
25.01.2023 02:34 0,4 C 0,0 C -2,8 C 89 % 1037,1 hPa 0,0 l/m 0 min 0 min 0 W/m 6,4 km/h (2 Bft) 93,62 %
25.01.2023 02:36 0,4 C 0,0 C -2,8 C 89 % 1037,1 hPa 0,0 l/m 0 min 0 min 0 W/m 3,2 km/h (1 Bft) 95,74 %
25.01.2023 02:38 0,4 C 0,0 C -2,8 C 89 % 1037,0 hPa 0,0 l/m 0 min 0 min 0 W/m 3,2 km/h (1 Bft) 95,74 %
25.01.2023 02:40 0,4 C 0,0 C -2,8 C 89 % 1037,1 hPa 0,0 l/m 0 min 0 min 0 W/m 3,2 km/h (1 Bft) 95,74 %
25.01.2023 02:42 0,4 C 0,0 C -2,8 C 89 % 1037,0 hPa 0,0 l/m 0 min 0 min 0 W/m 3,2 km/h (1 Bft) 97,87 %
25.01.2023 02:44 0,4 C 0,0 C -2,8 C 89 % 1037,0 hPa 0,0 l/m 0 min 0 min 0 W/m 3,2 km/h (1 Bft) 95,65 %
25.01.2023 02:46 0,4 C 0,0 C -2,8 C 89 % 1037,0 hPa 0,0 l/m 0 min 0 min 0 W/m 3,2 km/h (1 Bft) 95,74 %
25.01.2023 02:48 0,4 C 0,0 C -2,8 C 89 % 1036,9 hPa 0,0 l/m 0 min 0 min 0 W/m 6,4 km/h (2 Bft) 93,62 %
25.01.2023 02:50 0,4 C 0,0 C -2,8 C 89 % 1037,0 hPa 0,0 l/m 0 min 0 min 0 W/m 6,4 km/h (2 Bft) 93,62 %
25.01.2023 02:52 0,4 C 0,0 C -2,8 C 89 % 1037,0 hPa 0,0 l/m 0 min 0 min 0 W/m 3,2 km/h (1 Bft) 95,74 %
25.01.2023 02:54 0,4 C 0,0 C -2,8 C 89 % 1037,0 hPa 0,0 l/m 0 min 0 min 0 W/m 6,4 km/h (2 Bft) 93,62 %
25.01.2023 02:56 0,4 C 0,0 C -2,8 C 89 % 1037,0 hPa 0,0 l/m 0 min 0 min 0 W/m 6,4 km/h (2 Bft) 95,65 %
25.01.2023 02:58 0,4 C 0,0 C -2,8 C 90 % 1037,0 hPa 0,0 l/m 0 min 0 min 0 W/m 3,2 km/h (1 Bft) 93,62 %
25.01.2023 03:00 0,4 C 0,0 C -2,8 C 90 % 1036,9 hPa 0,0 l/m 0 min 0 min 0 W/m 3,2 km/h (1 Bft) 93,62 %
25.01.2023 03:02 0,4 C 0,0 C -2,8 C 90 % 1036,9 hPa 0,0 l/m 0 min 0 min 0 W/m 3,2 km/h (1 Bft) 97,87 %
25.01.2023 03:04 0,4 C 0,0 C -2,8 C 90 % 1036,9 hPa 0,0 l/m 0 min 0 min 0 W/m 3,2 km/h (1 Bft) 97,87 %
25.01.2023 03:06 0,4 C 0,0 C -2,8 C 89 % 1036,9 hPa 0,0 l/m 0 min 0 min 0 W/m 6,4 km/h (2 Bft) 95,83 %
25.01.2023 03:08 0,4 C 0,0 C -2,8 C 89 % 1036,9 hPa 0,0 l/m 0 min 0 min 0 W/m 3,2 km/h (1 Bft) 95,74 %
25.01.2023 03:10 0,4 C 0,0 C -2,8 C 89 % 1036,8 hPa 0,0 l/m 0 min 0 min 0 W/m 3,2 km/h (1 Bft) 97,83 %
25.01.2023 03:12 0,4 C 0,0 C -2,8 C 90 % 1036,9 hPa 0,0 l/m 0 min 0 min 0 W/m 3,2 km/h (1 Bft) 95,74 %
25.01.2023 03:14 0,4 C 0,0 C -2,8 C 89 % 1036,9 hPa 0,0 l/m 0 min 0 min 0 W/m 3,2 km/h (1 Bft) 100,00 %
25.01.2023 03:16 0,4 C 0,0 C -2,8 C 89 % 1036,9 hPa 0,0 l/m 0 min 0 min 0 W/m 0,0 km/h (0 Bft) 100,00 %
25.01.2023 03:18 0,4 C 0,0 C -2,8 C 90 % 1036,9 hPa 0,0 l/m 0 min 0 min 0 W/m 0,0 km/h (0 Bft) 100,00 %
25.01.2023 03:20 0,4 C 0,0 C -2,8 C 90 % 1036,9 hPa 0,0 l/m 0 min 0 min 0 W/m 3,2 km/h (1 Bft) 97,87 %
25.01.2023 03:22 0,4 C 0,0 C -2,8 C 90 % 1036,9 hPa 0,0 l/m 0 min 0 min 0 W/m 6,4 km/h (2 Bft) 100,00 %
25.01.2023 03:24 0,4 C 0,0 C -2,8 C 90 % 1036,8 hPa 0,0 l/m 0 min 0 min 0 W/m 3,2 km/h (1 Bft) 100,00 %
25.01.2023 03:26 0,4 C 0,0 C -2,8 C 90 % 1036,8 hPa 0,0 l/m 0 min 0 min 0 W/m 6,4 km/h (2 Bft) 100,00 %
25.01.2023 03:28 0,4 C 0,0 C -2,8 C 90 % 1036,8 hPa 0,0 l/m 0 min 0 min 0 W/m 3,2 km/h (1 Bft) 100,00 %
25.01.2023 03:30 0,4 C 0,0 C -2,8 C 90 % 1036,8 hPa 0,0 l/m 0 min 0 min 0 W/m 3,2 km/h (1 Bft) 100,00 %
25.01.2023 03:32 0,4 C 0,0 C -2,8 C 90 % 1036,8 hPa 0,0 l/m 0 min 0 min 0 W/m 0,0 km/h (0 Bft) 95,74 %
25.01.2023 03:34 0,4 C 0,0 C -2,8 C 90 % 1036,8 hPa 0,0 l/m 0 min 0 min 0 W/m 3,2 km/h (1 Bft) 95,65 %
25.01.2023 03:36 0,4 C 0,0 C -2,8 C 90 % 1036,9 hPa 0,0 l/m 0 min 0 min 0 W/m 3,2 km/h (1 Bft) 97,87 %
25.01.2023 03:38 0,4 C 0,0 C -2,8 C 90 % 1036,9 hPa 0,0 l/m 0 min 0 min 0 W/m 6,4 km/h (2 Bft) 95,74 %
25.01.2023 03:40 0,4 C 0,0 C -2,8 C 90 % 1036,9 hPa 0,0 l/m 0 min 0 min 0 W/m 3,2 km/h (1 Bft) 97,87 %
25.01.2023 03:42 0,4 C 0,0 C -2,8 C 90 % 1036,9 hPa 0,0 l/m 0 min 0 min 0 W/m 0,0 km/h (0 Bft) 97,87 %
25.01.2023 03:44 0,4 C 0,0 C -2,8 C 90 % 1036,8 hPa 0,0 l/m 0 min 0 min 0 W/m 3,2 km/h (1 Bft) 97,87 %
25.01.2023 03:46 0,4 C 0,0 C -2,8 C 90 % 1036,8 hPa 0,0 l/m 0 min 0 min 0 W/m 0,0 km/h (0 Bft) 95,74 %
25.01.2023 03:48 0,4 C 0,0 C -2,8 C 90 % 1036,8 hPa 0,0 l/m 0 min 0 min 0 W/m 3,2 km/h (1 Bft) 97,87 %
25.01.2023 03:50 0,4 C 0,0 C -2,8 C 90 % 1036,8 hPa 0,0 l/m 0 min 0 min 0 W/m 3,2 km/h (1 Bft) 97,87 %
25.01.2023 03:52 0,4 C 0,0 C -2,8 C 90 % 1036,8 hPa 0,0 l/m 0 min 0 min 0 W/m 3,2 km/h (1 Bft) 97,87 %
25.01.2023 03:54 0,4 C 0,0 C -2,8 C 90 % 1036,7 hPa 0,0 l/m 0 min 0 min 0 W/m 3,2 km/h (1 Bft) 95,74 %
25.01.2023 03:56 0,4 C 0,0 C -2,8 C 90 % 1036,7 hPa 0,0 l/m 0 min 0 min 0 W/m 6,4 km/h (2 Bft) 97,87 %
25.01.2023 03:58 0,4 C 0,0 C -2,8 C 90 % 1036,8 hPa 0,0 l/m 0 min 0 min 0 W/m 6,4 km/h (2 Bft) 95,65 %
25.01.2023 04:00 0,4 C 0,0 C -2,8 C 90 % 1036,7 hPa 0,0 l/m 0 min 0 min 0 W/m 3,2 km/h (1 Bft) 95,74 %
25.01.2023 04:02 0,4 C 0,0 C -2,8 C 90 % 1036,7 hPa 0,0 l/m 0 min 0 min 0 W/m 6,4 km/h (2 Bft) 100,00 %
25.01.2023 04:04 0,4 C 0,0 C -2,8 C 90 % 1036,7 hPa 0,0 l/m 0 min 0 min 0 W/m 6,4 km/h (2 Bft) 97,87 %
25.01.2023 04:06 0,4 C 0,0 C -2,8 C 90 % 1036,7 hPa 0,0 l/m 0 min 0 min 0 W/m 3,2 km/h (1 Bft) 97,87 %
25.01.2023 04:08 0,3 C 0,0 C -2,8 C 90 % 1036,7 hPa 0,0 l/m 0 min 0 min 0 W/m 6,4 km/h (2 Bft) 95,74 %
25.01.2023 04:10 0,3 C 0,0 C -2,8 C 90 % 1036,7 hPa 0,0 l/m 0 min 0 min 0 W/m 0,0 km/h (0 Bft) 95,74 %
25.01.2023 04:12 0,3 C 0,0 C -2,8 C 90 % 1036,7 hPa 0,0 l/m 0 min 0 min 0 W/m 0,0 km/h (0 Bft) 97,83 %
25.01.2023 04:14 0,3 C 0,0 C -2,8 C 90 % 1036,7 hPa 0,0 l/m 0 min 0 min 0 W/m 0,0 km/h (0 Bft) 97,87 %
25.01.2023 04:16 0,3 C 0,0 C -2,8 C 90 % 1036,7 hPa 0,0 l/m 0 min 0 min 0 W/m 6,4 km/h (2 Bft) 95,74 %
25.01.2023 04:18 0,3 C 0,0 C -2,8 C 90 % 1036,7 hPa 0,0 l/m 0 min 0 min 0 W/m 3,2 km/h (1 Bft) 97,87 %
25.01.2023 04:20 0,3 C 0,0 C -2,8 C 90 % 1036,7 hPa 0,0 l/m 0 min 0 min 0 W/m 0,0 km/h (0 Bft) 93,62 %
25.01.2023 04:22 0,3 C 0,0 C -2,8 C 90 % 1036,7 hPa 0,0 l/m 0 min 0 min 0 W/m 0,0 km/h (0 Bft) 95,74 %
25.01.2023 04:24 0,3 C 0,0 C -2,8 C 90 % 1036,7 hPa 0,0 l/m 0 min 0 min 0 W/m 3,2 km/h (1 Bft) 91,30 %
25.01.2023 04:26 0,3 C 0,0 C -2,8 C 90 % 1036,6 hPa 0,0 l/m 0 min 0 min 0 W/m 0,0 km/h (0 Bft) 95,74 %
25.01.2023 04:28 0,3 C 0,0 C -2,8 C 90 % 1036,6 hPa 0,0 l/m 0 min 0 min 0 W/m 3,2 km/h (1 Bft) 93,62 %
25.01.2023 04:30 0,3 C 0,0 C -2,8 C 90 % 1036,5 hPa 0,0 l/m 0 min 0 min 0 W/m 3,2 km/h (1 Bft) 93,62 %
25.01.2023 04:32 0,3 C 0,0 C -2,8 C 90 % 1036,6 hPa 0,0 l/m 0 min 0 min 0 W/m 0,0 km/h (0 Bft) 93,62 %
25.01.2023 04:34 0,3 C 0,0 C -2,8 C 90 % 1036,6 hPa 0,0 l/m 0 min 0 min 0 W/m 6,4 km/h (2 Bft) 95,74 %
25.01.2023 04:36 0,3 C 0,0 C -2,8 C 90 % 1036,6 hPa 0,0 l/m 0 min 0 min 0 W/m 6,4 km/h (2 Bft) 95,74 %
25.01.2023 04:38 0,3 C 0,0 C -2,8 C 90 % 1036,6 hPa 0,0 l/m 0 min 0 min 0 W/m 3,2 km/h (1 Bft) 97,83 %
25.01.2023 04:40 0,3 C 0,0 C -2,8 C 90 % 1036,6 hPa 0,0 l/m 0 min 0 min 0 W/m 9,7 km/h (2 Bft) 95,74 %
25.01.2023 04:42 0,3 C 0,0 C -2,8 C 90 % 1036,6 hPa 0,0 l/m 0 min 0 min 0 W/m 3,2 km/h (1 Bft) 97,87 %
25.01.2023 04:44 0,3 C 0,0 C -2,8 C 90 % 1036,6 hPa 0,0 l/m 0 min 0 min 0 W/m 3,2 km/h (1 Bft) 97,87 %
25.01.2023 04:46 0,3 C 0,0 C -2,8 C 90 % 1036,5 hPa 0,0 l/m 0 min 0 min 0 W/m 3,2 km/h (1 Bft) 91,49 %
25.01.2023 04:48 0,3 C 0,0 C -2,8 C 90 % 1036,5 hPa 0,0 l/m 0 min 0 min 0 W/m 0,0 km/h (0 Bft) 93,62 %
25.01.2023 04:50 0,3 C 0,0 C -2,8 C 90 % 1036,5 hPa 0,0 l/m 0 min 0 min 0 W/m 0,0 km/h (0 Bft) 97,83 %
25.01.2023 04:52 0,3 C 0,0 C -2,8 C 90 % 1036,5 hPa 0,0 l/m 0 min 0 min 0 W/m 0,0 km/h (0 Bft) 51,22 %
25.01.2023 04:54 0,3 C 0,0 C -2,8 C 90 % 1036,5 hPa 0,0 l/m 0 min 0 min 0 W/m 0,0 km/h (0 Bft) 97,87 %
25.01.2023 04:56 0,3 C 0,0 C -2,8 C 90 % 1036,4 hPa 0,0 l/m 0 min 0 min 0 W/m 3,2 km/h (1 Bft) 97,87 %
25.01.2023 04:58 0,3 C 0,0 C -2,8 C 90 % 1036,5 hPa 0,0 l/m 0 min 0 min 0 W/m 3,2 km/h (1 Bft) 97,87 %
25.01.2023 05:00 0,3 C 0,0 C -2,8 C 90 % 1036,4 hPa 0,0 l/m 0 min 0 min 0 W/m 0,0 km/h (0 Bft) 95,74 %
25.01.2023 05:02 0,3 C 0,0 C -2,8 C 90 % 1036,4 hPa 0,0 l/m 0 min 0 min 0 W/m 0,0 km/h (0 Bft) 93,62 %
25.01.2023 05:04 0,3 C 0,0 C -2,8 C 90 % 1036,4 hPa 0,0 l/m 0 min 0 min 0 W/m 0,0 km/h (0 Bft) 95,65 %
25.01.2023 05:06 0,3 C 0,0 C -2,8 C 90 % 1036,4 hPa 0,0 l/m 0 min 0 min 0 W/m 3,2 km/h (1 Bft) 95,74 %
25.01.2023 05:08 0,3 C 0,0 C -2,8 C 90 % 1036,3 hPa 0,0 l/m 0 min 0 min 0 W/m 3,2 km/h (1 Bft) 97,87 %
25.01.2023 05:10 0,2 C 0,0 C -2,8 C 90 % 1036,4 hPa 0,0 l/m 0 min 0 min 0 W/m 3,2 km/h (1 Bft) 95,74 %
25.01.2023 05:12 0,3 C 0,0 C -2,8 C 90 % 1036,3 hPa 0,0 l/m 0 min 0 min 0 W/m 3,2 km/h (1 Bft) 97,87 %
25.01.2023 05:14 0,3 C 0,0 C -2,8 C 90 % 1036,3 hPa 0,0 l/m 0 min 0 min 0 W/m 3,2 km/h (1 Bft) 95,74 %
25.01.2023 05:16 0,3 C 0,0 C -2,8 C 90 % 1036,4 hPa 0,0 l/m 0 min 0 min 0 W/m 3,2 km/h (1 Bft) 97,14 %
25.01.2023 05:18 0,3 C 0,0 C -2,8 C 90 % 1036,3 hPa 0,0 l/m 0 min 0 min 0 W/m 3,2 km/h (1 Bft) 97,87 %
25.01.2023 05:20 0,3 C 0,0 C -2,8 C 90 % 1036,3 hPa 0,0 l/m 0 min 0 min 0 W/m 3,2 km/h (1 Bft) 97,83 %
25.01.2023 05:22 0,3 C 0,0 C -2,8 C 90 % 1036,2 hPa 0,0 l/m 0 min 0 min 0 W/m 6,4 km/h (2 Bft) 97,87 %
25.01.2023 05:24 0,3 C 0,0 C -2,8 C 90 % 1036,2 hPa 0,0 l/m 0 min 0 min 0 W/m 6,4 km/h (2 Bft) 97,87 %
25.01.2023 05:26 0,2 C -0,6 C -2,8 C 90 % 1036,2 hPa 0,0 l/m 0 min 0 min 0 W/m 3,2 km/h (1 Bft) 96,36 %
25.01.2023 05:28 0,2 C -0,6 C -2,8 C 90 % 1036,1 hPa 0,0 l/m 0 min 0 min 0 W/m 0,0 km/h (0 Bft) 98,00 %
25.01.2023 05:30 0,2 C 0,0 C -2,8 C 90 % 1036,1 hPa 0,0 l/m 0 min 0 min 0 W/m 0,0 km/h (0 Bft) 97,87 %
25.01.2023 05:32 0,2 C 0,0 C -2,8 C 90 % 1036,1 hPa 0,0 l/m 0 min 0 min 0 W/m 0,0 km/h (0 Bft) 97,87 %
25.01.2023 05:34 0,2 C 0,0 C -2,8 C 90 % 1036,1 hPa 0,0 l/m 0 min 0 min 0 W/m 3,2 km/h (1 Bft) 97,83 %
25.01.2023 05:36 0,2 C 0,0 C -2,8 C 90 % 1036,1 hPa 0,0 l/m 0 min 0 min 0 W/m 0,0 km/h (0 Bft) 100,00 %
25.01.2023 05:38 0,2 C 0,0 C -2,8 C 90 % 1036,0 hPa 0,0 l/m 0 min 0 min 0 W/m 0,0 km/h (0 Bft) 97,87 %
25.01.2023 05:40 0,2 C 0,0 C -2,8 C 90 % 1036,0 hPa 0,0 l/m 0 min 0 min 0 W/m 3,2 km/h (1 Bft) 100,00 %
25.01.2023 05:42 0,3 C 0,0 C -2,8 C 90 % 1036,0 hPa 0,0 l/m 0 min 0 min 0 W/m 3,2 km/h (1 Bft) 100,00 %
25.01.2023 05:44 0,2 C 0,0 C -2,8 C 90 % 1036,0 hPa 0,0 l/m 0 min 0 min 0 W/m 3,2 km/h (1 Bft) 97,87 %
25.01.2023 05:46 0,2 C 0,0 C -2,8 C 90 % 1035,9 hPa 0,0 l/m 0 min 0 min 0 W/m 3,2 km/h (1 Bft) 100,00 %
25.01.2023 05:48 0,2 C -0,6 C -2,8 C 90 % 1035,9 hPa 0,0 l/m 0 min 0 min 0 W/m 6,4 km/h (2 Bft) 100,00 %
25.01.2023 05:50 0,2 C -0,6 C -2,8 C 90 % 1035,9 hPa 0,0 l/m 0 min 0 min 0 W/m 3,2 km/h (1 Bft) 97,87 %
25.01.2023 05:52 0,2 C -0,6 C -2,8 C 90 % 1035,9 hPa 0,0 l/m 0 min 0 min 0 W/m 3,2 km/h (1 Bft) 100,00 %
25.01.2023 05:54 0,2 C -0,6 C -2,8 C 90 % 1035,9 hPa 0,0 l/m 0 min 0 min 0 W/m 3,2 km/h (1 Bft) 100,00 %
25.01.2023 05:56 0,2 C 0,0 C -2,8 C 90 % 1035,9 hPa 0,0 l/m 0 min 0 min 0 W/m 3,2 km/h (1 Bft) 100,00 %
25.01.2023 05:58 0,2 C 0,0 C -2,8 C 90 % 1035,8 hPa 0,0 l/m 0 min 0 min 0 W/m 6,4 km/h (2 Bft) 100,00 %
25.01.2023 06:00 0,2 C 0,0 C -2,8 C 90 % 1035,8 hPa 0,0 l/m 0 min 0 min 0 W/m 6,4 km/h (2 Bft) 85,11 %
25.01.2023 06:02 0,2 C 0,0 C -2,8 C 90 % 1035,8 hPa 0,0 l/m 0 min 0 min 0 W/m 6,4 km/h (2 Bft) 97,83 %
25.01.2023 06:04 0,2 C 0,0 C -2,8 C 90 % 1035,8 hPa 0,0 l/m 0 min 0 min 0 W/m 3,2 km/h (1 Bft) 100,00 %
25.01.2023 06:07 0,2 C 0,0 C -2,8 C 90 % 1035,8 hPa 0,0 l/m 0 min 0 min 0 W/m 3,2 km/h (1 Bft) 97,18 %
25.01.2023 06:08 0,2 C 0,0 C -2,8 C 90 % 1035,8 hPa 0,0 l/m 0 min 0 min 0 W/m 6,4 km/h (2 Bft) 91,67 %
25.01.2023 06:12 0,2 C 0,0 C -2,8 C 90 % 1035,8 hPa 0,0 l/m 0 min 0 min 0 W/m 3,2 km/h (1 Bft) 96,00 %
25.01.2023 06:14 0,3 C 0,0 C -2,8 C 90 % 1035,7 hPa 0,0 l/m 0 min 0 min 0 W/m 0,0 km/h (0 Bft) 93,48 %
25.01.2023 06:16 0,3 C 0,0 C -2,8 C 90 % 1035,8 hPa 0,0 l/m 0 min 0 min 0 W/m 0,0 km/h (0 Bft) 95,74 %
25.01.2023 06:18 0,3 C 0,0 C -2,8 C 90 % 1035,8 hPa 0,0 l/m 0 min 0 min 0 W/m 6,4 km/h (2 Bft) 97,87 %
25.01.2023 06:20 0,3 C 0,0 C -2,8 C 90 % 1035,8 hPa 0,0 l/m 0 min 0 min 0 W/m 3,2 km/h (1 Bft) 100,00 %
25.01.2023 06:22 0,3 C 0,0 C -2,8 C 90 % 1035,8 hPa 0,0 l/m 0 min 0 min 0 W/m 3,2 km/h (1 Bft) 97,87 %
25.01.2023 06:24 0,3 C 0,0 C -2,8 C 90 % 1035,8 hPa 0,0 l/m 0 min 0 min 0 W/m 6,4 km/h (2 Bft) 92,31 %
25.01.2023 06:26 0,3 C 0,0 C -2,8 C 90 % 1035,7 hPa 0,0 l/m 0 min 0 min 0 W/m 6,4 km/h (2 Bft) 97,83 %
25.01.2023 06:28 0,3 C 0,0 C -2,8 C 90 % 1035,7 hPa 0,0 l/m 0 min 0 min 0 W/m 3,2 km/h (1 Bft) 95,74 %
25.01.2023 06:30 0,3 C 0,0 C -2,8 C 90 % 1035,7 hPa 0,0 l/m 0 min 0 min 0 W/m 3,2 km/h (1 Bft) 95,74 %
25.01.2023 06:32 0,3 C 0,0 C -2,8 C 90 % 1035,7 hPa 0,0 l/m 0 min 0 min 0 W/m 3,2 km/h (1 Bft) 97,87 %
25.01.2023 06:34 0,3 C 0,0 C -2,8 C 90 % 1035,7 hPa 0,0 l/m 0 min 0 min 0 W/m 0,0 km/h (0 Bft) 95,74 %
25.01.2023 06:36 0,3 C 0,0 C -2,8 C 90 % 1035,7 hPa 0,0 l/m 0 min 0 min 0 W/m 0,0 km/h (0 Bft) 97,87 %
25.01.2023 06:38 0,3 C 0,0 C -2,8 C 90 % 1035,7 hPa 0,0 l/m 0 min 0 min 0 W/m 0,0 km/h (0 Bft) 100,00 %
25.01.2023 06:40 0,3 C 0,0 C -2,8 C 90 % 1035,7 hPa 0,0 l/m 0 min 0 min 0 W/m 0,0 km/h (0 Bft) 100,00 %
25.01.2023 06:42 0,3 C 0,0 C -2,8 C 90 % 1035,7 hPa 0,0 l/m 0 min 0 min 0 W/m 0,0 km/h (0 Bft) 100,00 %
25.01.2023 06:44 0,3 C 0,0 C -2,8 C 90 % 1035,7 hPa 0,0 l/m 0 min 0 min 0 W/m 0,0 km/h (0 Bft) 100,00 %
25.01.2023 06:46 0,3 C 0,0 C -2,8 C 90 % 1035,7 hPa 0,0 l/m 0 min 0 min 0 W/m 0,0 km/h (0 Bft) 100,00 %
25.01.2023 06:48 0,3 C 0,0 C -2,8 C 90 % 1035,7 hPa 0,0 l/m 0 min 0 min 0 W/m 0,0 km/h (0 Bft) 97,87 %
25.01.2023 06:50 0,3 C 0,0 C -2,8 C 90 % 1035,7 hPa 0,0 l/m 0 min 0 min 0 W/m 3,2 km/h (1 Bft) 100,00 %
25.01.2023 06:52 0,3 C 0,0 C -2,8 C 90 % 1035,7 hPa 0,0 l/m 0 min 0 min 0 W/m 3,2 km/h (1 Bft) 100,00 %
25.01.2023 06:54 0,3 C 0,0 C -2,8 C 90 % 1035,7 hPa 0,0 l/m 0 min 0 min 0 W/m 3,2 km/h (1 Bft) 87,50 %
25.01.2023 06:56 0,3 C 0,0 C -2,8 C 90 % 1035,7 hPa 0,0 l/m 0 min 0 min 0 W/m 0,0 km/h (0 Bft) 97,87 %
25.01.2023 06:58 0,3 C 0,0 C -2,8 C 90 % 1035,6 hPa 0,0 l/m 0 min 0 min 0 W/m 3,2 km/h (1 Bft) 97,87 %
25.01.2023 07:00 0,3 C 0,0 C -2,8 C 90 % 1035,6 hPa 0,0 l/m 0 min 0 min 0 W/m 3,2 km/h (1 Bft) 89,36 %
25.01.2023 07:02 0,3 C 0,0 C -2,8 C 91 % 1035,6 hPa 0,0 l/m 0 min 0 min 0 W/m 6,4 km/h (2 Bft) 97,87 %
25.01.2023 07:04 0,3 C 0,0 C -2,8 C 91 % 1035,7 hPa 0,0 l/m 0 min 0 min 0 W/m 3,2 km/h (1 Bft) 93,62 %
25.01.2023 07:06 0,4 C 0,0 C -2,8 C 91 % 1035,6 hPa 0,0 l/m 0 min 0 min 0 W/m 0,0 km/h (0 Bft) 65,52 %
25.01.2023 07:08 0,4 C 0,0 C -2,8 C 91 % 1035,6 hPa 0,0 l/m 0 min 0 min 0 W/m 3,2 km/h (1 Bft) 90,32 %
25.01.2023 07:10 0,4 C 0,0 C -2,8 C 91 % 1035,6 hPa 0,0 l/m 0 min 0 min 0 W/m 0,0 km/h (0 Bft) 89,36 %
25.01.2023 07:12 0,4 C 0,0 C -2,8 C 91 % 1035,6 hPa 0,0 l/m 0 min 0 min 0 W/m 0,0 km/h (0 Bft) 87,23 %
25.01.2023 07:14 0,4 C 0,0 C -2,8 C 91 % 1035,6 hPa 0,0 l/m 0 min 0 min 0 W/m 0,0 km/h (0 Bft) 95,74 %
25.01.2023 07:16 0,4 C 0,0 C -2,8 C 91 % 1035,6 hPa 0,0 l/m 0 min 0 min 0 W/m 3,2 km/h (1 Bft) 93,62 %
25.01.2023 07:18 0,4 C 0,0 C -2,8 C 91 % 1035,5 hPa 0,0 l/m 0 min 0 min 0 W/m 6,4 km/h (2 Bft) 95,74 %
25.01.2023 07:20 0,4 C 0,0 C -2,8 C 91 % 1035,5 hPa 0,0 l/m 0 min 0 min 0 W/m 0,0 km/h (0 Bft) 95,65 %
25.01.2023 07:22 0,4 C 0,0 C -2,8 C 91 % 1035,6 hPa 0,0 l/m 0 min 0 min 0 W/m 3,2 km/h (1 Bft) 93,62 %
25.01.2023 07:24 0,4 C 0,0 C -2,8 C 91 % 1035,5 hPa 0,0 l/m 0 min 0 min 0 W/m 3,2 km/h (1 Bft) 93,62 %
25.01.2023 07:26 0,4 C 0,0 C -2,8 C 91 % 1035,6 hPa 0,0 l/m 0 min 0 min 0 W/m 3,2 km/h (1 Bft) 93,62 %
25.01.2023 07:28 0,4 C 0,0 C -2,8 C 91 % 1035,5 hPa 0,0 l/m 0 min 0 min 0 W/m 0,0 km/h (0 Bft) 95,74 %
25.01.2023 07:30 0,5 C 0,0 C -2,8 C 91 % 1035,6 hPa 0,0 l/m 0 min 0 min 0 W/m 0,0 km/h (0 Bft) 93,62 %
25.01.2023 07:32 0,5 C 0,0 C -2,8 C 91 % 1035,5 hPa 0,0 l/m 0 min 0 min 0 W/m 3,2 km/h (1 Bft) 95,74 %
25.01.2023 07:34 0,5 C 0,0 C -2,8 C 91 % 1035,6 hPa 0,0 l/m 0 min 0 min 0 W/m 3,2 km/h (1 Bft) 95,65 %
25.01.2023 07:36 0,5 C 0,0 C -2,8 C 91 % 1035,5 hPa 0,0 l/m 0 min 0 min 0 W/m 6,4 km/h (2 Bft) 95,74 %
25.01.2023 07:38 0,5 C 0,0 C -2,8 C 91 % 1035,5 hPa 0,0 l/m 0 min 0 min 0 W/m 3,2 km/h (1 Bft) 95,74 %
25.01.2023 07:40 0,5 C 0,0 C -2,8 C 91 % 1035,4 hPa 0,0 l/m 0 min 0 min 0 W/m 6,4 km/h (2 Bft) 95,74 %
25.01.2023 07:42 0,4 C 0,0 C -2,8 C 92 % 1035,4 hPa 0,0 l/m 0 min 0 min 0 W/m 0,0 km/h (0 Bft) 93,62 %
25.01.2023 07:44 0,4 C 0,0 C -2,8 C 92 % 1035,4 hPa 0,0 l/m 0 min 0 min 0 W/m 0,0 km/h (0 Bft) 91,84 %
25.01.2023 07:46 0,4 C 0,0 C -2,8 C 92 % 1035,4 hPa 0,0 l/m 0 min 0 min 0 W/m 0,0 km/h (0 Bft) 95,74 %
25.01.2023 07:48 0,4 C 0,0 C -2,8 C 92 % 1035,5 hPa 0,0 l/m 0 min 0 min 0 W/m 0,0 km/h (0 Bft) 91,49 %
25.01.2023 07:50 0,4 C 0,0 C -2,8 C 92 % 1035,4 hPa 0,0 l/m 0 min 0 min 0 W/m 3,2 km/h (1 Bft) 97,87 %
25.01.2023 07:52 0,4 C 0,0 C -2,8 C 92 % 1035,5 hPa 0,0 l/m 0 min 0 min 0 W/m 0,0 km/h (0 Bft) 53,19 %
25.01.2023 07:54 0,4 C 0,0 C -2,8 C 92 % 1035,5 hPa 0,0 l/m 0 min 0 min 0 W/m 6,4 km/h (2 Bft) 97,87 %
25.01.2023 07:56 0,4 C -0,6 C -2,8 C 92 % 1035,5 hPa 0,0 l/m 0 min 0 min 0 W/m 3,2 km/h (1 Bft) 97,87 %
25.01.2023 07:58 0,4 C -0,6 C -2,8 C 92 % 1035,4 hPa 0,0 l/m 0 min 0 min 0 W/m 0,0 km/h (0 Bft) 95,65 %
25.01.2023 08:00 0,4 C -0,6 C -2,8 C 92 % 1035,5 hPa 0,0 l/m 0 min 0 min 0 W/m 3,2 km/h (1 Bft) 97,87 %
25.01.2023 08:02 0,4 C -0,6 C -2,8 C 92 % 1035,5 hPa 0,0 l/m 0 min 0 min 0 W/m 3,2 km/h (1 Bft) 97,87 %
25.01.2023 08:04 0,4 C -0,6 C -2,8 C 92 % 1035,5 hPa 0,0 l/m 0 min 0 min 0 W/m 3,2 km/h (1 Bft) 95,74 %
25.01.2023 08:06 0,4 C 0,0 C -2,8 C 92 % 1035,6 hPa 0,0 l/m 0 min 0 min 0 W/m 3,2 km/h (1 Bft) 89,66 %
25.01.2023 08:08 0,4 C 0,0 C -2,8 C 92 % 1035,5 hPa 0,0 l/m 0 min 0 min 0 W/m 3,2 km/h (1 Bft) 100,00 %
25.01.2023 08:10 0,4 C 0,0 C -2,8 C 92 % 1035,5 hPa 0,0 l/m 0 min 0 min 0 W/m 3,2 km/h (1 Bft) 95,74 %
25.01.2023 08:12 0,4 C -0,6 C -2,8 C 92 % 1035,5 hPa 0,0 l/m 0 min 0 min 0 W/m 6,4 km/h (2 Bft) 93,48 %
25.01.2023 08:14 0,4 C 0,0 C -2,8 C 92 % 1035,5 hPa 0,0 l/m 0 min 0 min 0 W/m 6,4 km/h (2 Bft) 95,74 %
25.01.2023 08:16 0,4 C 0,0 C -2,8 C 92 % 1035,5 hPa 0,0 l/m 0 min 0 min 0 W/m 6,4 km/h (2 Bft) 97,87 %
25.01.2023 08:18 0,4 C 0,0 C -2,8 C 92 % 1035,5 hPa 0,0 l/m 0 min 0 min 0 W/m 3,2 km/h (1 Bft) 95,74 %
25.01.2023 08:20 0,4 C 0,0 C -2,8 C 92 % 1035,5 hPa 0,0 l/m 0 min 0 min 0 W/m 3,2 km/h (1 Bft) 97,87 %
25.01.2023 08:22 0,3 C 0,0 C -2,8 C 92 % 1035,5 hPa 0,0 l/m 0 min 0 min 0 W/m 3,2 km/h (1 Bft) 97,87 %
25.01.2023 08:24 0,3 C -0,6 C -2,8 C 92 % 1035,5 hPa 0,0 l/m 0 min 0 min 0 W/m 3,2 km/h (1 Bft) 97,83 %
25.01.2023 08:26 0,3 C -0,6 C -2,8 C 92 % 1035,5 hPa 0,0 l/m 0 min 0 min 0 W/m 3,2 km/h (1 Bft) 100,00 %
25.01.2023 08:28 0,3 C -0,6 C -2,8 C 93 % 1035,4 hPa 0,0 l/m 0 min 0 min 0 W/m 3,2 km/h (1 Bft) 100,00 %
25.01.2023 08:30 0,3 C -0,6 C -2,8 C 93 % 1035,5 hPa 0,0 l/m 0 min 0 min 0 W/m 9,7 km/h (2 Bft) 100,00 %
25.01.2023 08:32 0,3 C -0,6 C -2,8 C 93 % 1035,5 hPa 0,0 l/m 0 min 0 min 0 W/m 3,2 km/h (1 Bft) 100,00 %
25.01.2023 08:34 0,3 C -0,6 C -2,8 C 93 % 1035,5 hPa 0,0 l/m 0 min 0 min 0 W/m 3,2 km/h (1 Bft) 100,00 %
25.01.2023 08:36 0,3 C 0,0 C -2,8 C 93 % 1035,5 hPa 0,0 l/m 0 min 0 min 0 W/m 3,2 km/h (1 Bft) 72,34 %
25.01.2023 08:38 0,3 C -0,6 C -2,8 C 93 % 1035,4 hPa 0,0 l/m 0 min 0 min 0 W/m 3,2 km/h (1 Bft) 78,38 %
25.01.2023 08:40 0,3 C -0,6 C -2,8 C 93 % 1035,5 hPa 0,0 l/m 0 min 0 min 0 W/m 3,2 km/h (1 Bft) 100,00 %
25.01.2023 08:42 0,3 C 0,0 C -2,8 C 93 % 1035,5 hPa 0,0 l/m 0 min 0 min 0 W/m 3,2 km/h (1 Bft) 100,00 %
25.01.2023 08:44 0,3 C -0,6 C -2,8 C 93 % 1035,4 hPa 0,0 l/m 0 min 0 min 0 W/m 3,2 km/h (1 Bft) 100,00 %
25.01.2023 08:46 0,2 C -0,6 C -2,8 C 93 % 1035,4 hPa 0,0 l/m 0 min 0 min 0 W/m 6,4 km/h (2 Bft) 100,00 %
25.01.2023 08:48 0,2 C -0,6 C -2,8 C 93 % 1035,4 hPa 0,0 l/m 0 min 0 min 0 W/m 6,4 km/h (2 Bft) 100,00 %
25.01.2023 08:50 0,2 C 0,0 C -2,8 C 93 % 1035,5 hPa 0,0 l/m 0 min 0 min 0 W/m 6,4 km/h (2 Bft) 100,00 %
25.01.2023 08:52 0,2 C 0,0 C -2,8 C 93 % 1035,5 hPa 0,0 l/m 0 min 0 min 0 W/m 6,4 km/h (2 Bft) 100,00 %
25.01.2023 08:54 0,2 C -0,6 C -2,8 C 93 % 1035,4 hPa 0,0 l/m 0 min 0 min 0 W/m 6,4 km/h (2 Bft) 100,00 %
25.01.2023 08:56 0,2 C -0,6 C -2,8 C 93 % 1035,5 hPa 0,0 l/m 0 min 0 min 0 W/m 6,4 km/h (2 Bft) 100,00 %
25.01.2023 08:58 0,2 C -0,6 C -2,8 C 93 % 1035,4 hPa 0,0 l/m 0 min 0 min 5 W/m 9,7 km/h (2 Bft) 100,00 %
25.01.2023 09:00 0,2 C -0,6 C -2,8 C 93 % 1035,4 hPa 0,0 l/m 0 min 0 min 5 W/m 6,4 km/h (2 Bft) 100,00 %
25.01.2023 09:02 0,2 C -0,6 C -2,8 C 93 % 1035,4 hPa 0,0 l/m 0 min 0 min 5 W/m 3,2 km/h (1 Bft) 97,87 %
25.01.2023 09:04 0,2 C -0,6 C -2,8 C 93 % 1035,4 hPa 0,0 l/m 0 min 0 min 5 W/m 6,4 km/h (2 Bft) 100,00 %
25.01.2023 09:06 0,2 C 0,0 C -2,8 C 93 % 1035,4 hPa 0,0 l/m 0 min 0 min 5 W/m 9,7 km/h (2 Bft) 100,00 %
25.01.2023 09:08 0,2 C 0,0 C -2,8 C 93 % 1035,4 hPa 0,0 l/m 0 min 0 min 7 W/m 6,4 km/h (2 Bft) 100,00 %
25.01.2023 09:10 0,2 C 0,0 C -2,8 C 93 % 1035,4 hPa 0,0 l/m 0 min 0 min 7 W/m 3,2 km/h (1 Bft) 100,00 %
25.01.2023 09:12 0,2 C 0,0 C -2,8 C 93 % 1035,3 hPa 0,0 l/m 0 min 0 min 7 W/m 3,2 km/h (1 Bft) 100,00 %
25.01.2023 09:14 0,2 C -0,6 C -2,8 C 93 % 1035,3 hPa 0,0 l/m 0 min 0 min 7 W/m 3,2 km/h (1 Bft) 97,87 %
25.01.2023 09:16 0,1 C -0,6 C -2,8 C 93 % 1035,3 hPa 0,0 l/m 0 min 0 min 9 W/m 3,2 km/h (1 Bft) 100,00 %
25.01.2023 09:18 0,2 C -0,6 C -2,8 C 93 % 1035,3 hPa 0,0 l/m 0 min 0 min 9 W/m 3,2 km/h (1 Bft) 97,87 %
25.01.2023 09:20 0,2 C -0,6 C -2,8 C 93 % 1035,3 hPa 0,0 l/m 0 min 0 min 9 W/m 3,2 km/h (1 Bft) 97,83 %
25.01.2023 09:22 0,1 C -0,6 C -2,8 C 93 % 1035,3 hPa 0,0 l/m 0 min 0 min 9 W/m 3,2 km/h (1 Bft) 52,38 %
25.01.2023 09:24 0,1 C -0,6 C -2,8 C 93 % 1035,2 hPa 0,0 l/m 0 min 0 min 10 W/m 6,4 km/h (2 Bft) 100,00 %
25.01.2023 09:26 0,1 C -0,6 C -3,3 C 93 % 1035,2 hPa 0,0 l/m 0 min 0 min 11 W/m 9,7 km/h (2 Bft) 95,74 %
25.01.2023 09:28 0,1 C -0,6 C -3,3 C 93 % 1035,3 hPa 0,0 l/m 0 min 0 min 11 W/m 6,4 km/h (2 Bft) 95,74 %
25.01.2023 09:30 0,1 C -0,6 C -2,8 C 93 % 1035,2 hPa 0,0 l/m 0 min 0 min 11 W/m 0,0 km/h (0 Bft) 97,87 %
25.01.2023 09:32 0,1 C -0,6 C -2,8 C 93 % 1035,2 hPa 0,0 l/m 0 min 0 min 11 W/m 0,0 km/h (0 Bft) 97,83 %
25.01.2023 09:34 0,1 C -0,6 C -2,8 C 93 % 1035,3 hPa 0,0 l/m 0 min 0 min 12 W/m 0,0 km/h (0 Bft) 100,00 %
25.01.2023 09:36 0,1 C -0,6 C -2,8 C 93 % 1035,2 hPa 0,0 l/m 0 min 0 min 12 W/m 3,2 km/h (1 Bft) 95,74 %
25.01.2023 09:38 0,1 C -0,6 C -2,8 C 93 % 1035,2 hPa 0,0 l/m 0 min 0 min 12 W/m 0,0 km/h (0 Bft) 97,87 %
25.01.2023 09:40 0,1 C -0,6 C -2,8 C 93 % 1035,2 hPa 0,0 l/m 0 min 0 min 12 W/m 0,0 km/h (0 Bft) 97,87 %
25.01.2023 09:42 0,1 C -0,6 C -2,8 C 93 % 1035,2 hPa 0,0 l/m 0 min 0 min 12 W/m 0,0 km/h (0 Bft) 95,74 %
25.01.2023 09:44 0,1 C -0,6 C -2,8 C 93 % 1035,2 hPa 0,0 l/m 0 min 0 min 12 W/m 6,4 km/h (2 Bft) 95,65 %
25.01.2023 09:46 0,1 C -0,6 C -2,8 C 93 % 1035,2 hPa 0,0 l/m 0 min 0 min 12 W/m 6,4 km/h (2 Bft) 95,74 %
25.01.2023 09:48 0,1 C -0,6 C -3,3 C 93 % 1035,2 hPa 0,0 l/m 0 min 0 min 12 W/m 6,4 km/h (2 Bft) 95,74 %
25.01.2023 09:50 0,1 C -0,6 C -3,3 C 93 % 1035,2 hPa 0,0 l/m 0 min 0 min 12 W/m 0,0 km/h (0 Bft) 93,62 %
25.01.2023 09:52 0,1 C -0,6 C -2,8 C 93 % 1035,2 hPa 0,0 l/m 0 min 0 min 13 W/m 9,7 km/h (2 Bft) 95,74 %
25.01.2023 09:54 0,0 C -0,6 C -2,8 C 93 % 1035,2 hPa 0,0 l/m 0 min 0 min 14 W/m 3,2 km/h (1 Bft) 95,74 %
25.01.2023 09:56 0,0 C -0,6 C -2,8 C 93 % 1035,2 hPa 0,0 l/m 0 min 0 min 14 W/m 3,2 km/h (1 Bft) 93,48 %
25.01.2023 09:58 0,1 C -0,6 C -2,8 C 93 % 1035,2 hPa 0,0 l/m 0 min 0 min 14 W/m 3,2 km/h (1 Bft) 91,49 %
25.01.2023 10:00 0,1 C -0,6 C -2,8 C 93 % 1035,2 hPa 0,0 l/m 0 min 0 min 16 W/m 6,4 km/h (2 Bft) 93,62 %
25.01.2023 10:02 0,1 C -0,6 C -2,8 C 93 % 1035,2 hPa 0,0 l/m 0 min 0 min 16 W/m 3,2 km/h (1 Bft) 93,62 %
25.01.2023 10:04 0,1 C -0,6 C -2,8 C 93 % 1035,2 hPa 0,0 l/m 0 min 0 min 16 W/m 3,2 km/h (1 Bft) 95,74 %
25.01.2023 10:06 0,0 C -0,6 C -2,8 C 93 % 1035,2 hPa 0,0 l/m 0 min 0 min 16 W/m 6,4 km/h (2 Bft) 56,00 %
25.01.2023 10:08 0,0 C -0,6 C -2,8 C 93 % 1035,2 hPa 0,0 l/m 0 min 0 min 17 W/m 3,2 km/h (1 Bft) 94,29 %
25.01.2023 10:10 0,0 C -0,6 C -2,8 C 93 % 1035,1 hPa 0,0 l/m 0 min 0 min 18 W/m 3,2 km/h (1 Bft) 93,62 %
25.01.2023 10:12 0,0 C -0,6 C -2,8 C 93 % 1035,1 hPa 0,0 l/m 0 min 0 min 18 W/m 3,2 km/h (1 Bft) 95,74 %
25.01.2023 10:14 0,0 C -0,6 C -2,8 C 93 % 1035,1 hPa 0,0 l/m 0 min 0 min 18 W/m 3,2 km/h (1 Bft) 93,62 %
25.01.2023 10:16 0,0 C -0,6 C -2,8 C 93 % 1035,0 hPa 0,0 l/m 0 min 0 min 18 W/m 3,2 km/h (1 Bft) 93,62 %
25.01.2023 10:18 0,0 C -0,6 C -2,8 C 94 % 1035,1 hPa 0,0 l/m 0 min 0 min 18 W/m 3,2 km/h (1 Bft) 95,74 %
25.01.2023 10:20 0,0 C -0,6 C -2,8 C 94 % 1035,0 hPa 0,0 l/m 0 min 0 min 19 W/m 6,4 km/h (2 Bft) 97,87 %
25.01.2023 10:22 0,0 C -0,6 C -2,8 C 94 % 1035,0 hPa 0,0 l/m 0 min 0 min 19 W/m 6,4 km/h (2 Bft) 95,65 %
25.01.2023 10:24 0,0 C -0,6 C -2,8 C 94 % 1035,0 hPa 0,0 l/m 0 min 0 min 21 W/m 3,2 km/h (1 Bft) 97,87 %
25.01.2023 10:29 0,0 C -0,6 C -2,8 C 94 % 1035,0 hPa 0,0 l/m 0 min 0 min 20 W/m 6,4 km/h (2 Bft) 96,55 %
25.01.2023 10:32 0,0 C -0,6 C -2,8 C 94 % 1035,0 hPa 0,0 l/m 0 min 0 min 21 W/m 3,2 km/h (1 Bft) 98,59 %
25.01.2023 10:34 0,0 C -0,6 C -2,8 C 94 % 1034,9 hPa 0,0 l/m 0 min 0 min 21 W/m 6,4 km/h (2 Bft) 95,65 %
25.01.2023 10:36 0,0 C -0,6 C -2,8 C 94 % 1035,0 hPa 0,0 l/m 0 min 0 min 21 W/m 3,2 km/h (1 Bft) 97,87 %
25.01.2023 10:38 0,0 C -0,6 C -2,8 C 94 % 1034,9 hPa 0,0 l/m 0 min 0 min 21 W/m 6,4 km/h (2 Bft) 97,87 %
25.01.2023 10:40 0,0 C -0,6 C -2,8 C 94 % 1034,9 hPa 0,0 l/m 0 min 0 min 22 W/m 3,2 km/h (1 Bft) 97,87 %
25.01.2023 10:42 0,0 C -0,6 C -2,8 C 94 % 1034,9 hPa 0,0 l/m 0 min 0 min 23 W/m 3,2 km/h (1 Bft) 97,87 %
25.01.2023 10:44 0,0 C -0,6 C -2,8 C 94 % 1034,8 hPa 0,0 l/m 0 min 0 min 23 W/m 3,2 km/h (1 Bft) 97,87 %
25.01.2023 10:46 0,0 C -0,6 C -2,8 C 94 % 1034,8 hPa 0,0 l/m 0 min 0 min 25 W/m 3,2 km/h (1 Bft) 97,83 %
25.01.2023 10:48 0,0 C -0,6 C -2,8 C 94 % 1034,8 hPa 0,0 l/m 0 min 0 min 25 W/m 3,2 km/h (1 Bft) 95,74 %
25.01.2023 10:50 0,0 C -0,6 C -2,8 C 94 % 1034,7 hPa 0,0 l/m 0 min 0 min 25 W/m 6,4 km/h (2 Bft) 76,60 %
25.01.2023 10:52 0,0 C -0,6 C -2,8 C 94 % 1034,7 hPa 0,0 l/m 0 min 0 min 24 W/m 3,2 km/h (1 Bft) 75,00 %
25.01.2023 10:54 0,0 C -0,6 C -2,8 C 94 % 1034,8 hPa 0,0 l/m 0 min 0 min 23 W/m 0,0 km/h (0 Bft) 95,74 %
25.01.2023 10:56 0,0 C -0,6 C -2,8 C 94 % 1034,7 hPa 0,0 l/m 0 min 0 min 24 W/m 3,2 km/h (1 Bft) 95,74 %
25.01.2023 10:58 0,0 C -0,6 C -2,8 C 94 % 1034,8 hPa 0,0 l/m 0 min 0 min 25 W/m 3,2 km/h (1 Bft) 97,87 %
25.01.2023 11:00 0,0 C -0,6 C -2,8 C 94 % 1034,7 hPa 0,0 l/m 0 min 0 min 26 W/m 6,4 km/h (2 Bft) 97,83 %
25.01.2023 11:02 0,0 C -0,6 C -2,8 C 94 % 1034,7 hPa 0,0 l/m 0 min 0 min 26 W/m 6,4 km/h (2 Bft) 95,74 %
25.01.2023 11:04 0,0 C -0,6 C -2,8 C 94 % 1034,8 hPa 0,0 l/m 0 min 0 min 27 W/m 6,4 km/h (2 Bft) 100,00 %
25.01.2023 11:06 0,0 C -0,6 C -2,8 C 94 % 1034,7 hPa 0,0 l/m 0 min 0 min 28 W/m 6,4 km/h (2 Bft) 95,74 %
25.01.2023 11:08 -0,1 C -0,6 C -2,8 C 94 % 1034,7 hPa 0,0 l/m 0 min 0 min 28 W/m 3,2 km/h (1 Bft) 100,00 %
25.01.2023 11:10 -0,1 C -0,6 C -2,8 C 94 % 1034,7 hPa 0,0 l/m 0 min 0 min 30 W/m 6,4 km/h (2 Bft) 97,87 %
25.01.2023 11:12 -0,1 C -0,6 C -2,8 C 94 % 1034,6 hPa 0,0 l/m 0 min 0 min 29 W/m 3,2 km/h (1 Bft) 100,00 %
25.01.2023 11:14 -0,1 C -0,6 C -2,8 C 94 % 1034,7 hPa 0,0 l/m 0 min 0 min 29 W/m 3,2 km/h (1 Bft) 97,87 %
25.01.2023 11:16 -0,1 C -0,6 C -2,8 C 94 % 1034,7 hPa 0,0 l/m 0 min 0 min 29 W/m 6,4 km/h (2 Bft) 100,00 %
25.01.2023 11:18 -0,1 C -0,6 C -2,8 C 94 % 1034,7 hPa 0,0 l/m 0 min 0 min 28 W/m 6,4 km/h (2 Bft) 100,00 %
25.01.2023 11:20 -0,1 C -0,6 C -2,8 C 94 % 1034,7 hPa 0,0 l/m 0 min 0 min 29 W/m 3,2 km/h (1 Bft) 100,00 %
25.01.2023 11:22 -0,1 C 0,0 C -2,8 C 94 % 1034,7 hPa 0,0 l/m 0 min 0 min 29 W/m 3,2 km/h (1 Bft) 97,87 %
25.01.2023 11:24 0,0 C -0,6 C -2,8 C 94 % 1034,6 hPa 0,0 l/m 0 min 0 min 28 W/m 6,4 km/h (2 Bft) 100,00 %
25.01.2023 11:26 0,0 C 0,0 C -2,8 C 94 % 1034,6 hPa 0,0 l/m 0 min 0 min 28 W/m 6,4 km/h (2 Bft) 100,00 %
25.01.2023 11:28 0,0 C 0,0 C -2,8 C 94 % 1034,6 hPa 0,0 l/m 0 min 0 min 29 W/m 3,2 km/h (1 Bft) 97,87 %
25.01.2023 11:30 0,0 C 0,0 C -2,8 C 94 % 1034,6 hPa 0,0 l/m 0 min 0 min 30 W/m 6,4 km/h (2 Bft) 100,00 %
25.01.2023 11:32 0,0 C -0,6 C -2,8 C 94 % 1034,6 hPa 0,0 l/m 0 min 0 min 31 W/m 3,2 km/h (1 Bft) 100,00 %
25.01.2023 11:34 0,0 C 0,0 C -2,8 C 94 % 1034,6 hPa 0,0 l/m 0 min 0 min 32 W/m 6,4 km/h (2 Bft) 97,87 %
25.01.2023 11:36 0,0 C 0,0 C -2,8 C 94 % 1034,6 hPa 0,0 l/m 0 min 0 min 32 W/m 6,4 km/h (2 Bft) 97,87 %
25.01.2023 11:38 0,0 C 0,0 C -2,8 C 94 % 1034,5 hPa 0,0 l/m 0 min 0 min 32 W/m 9,7 km/h (2 Bft) 97,87 %
25.01.2023 11:40 0,0 C 0,0 C -2,8 C 94 % 1034,5 hPa 0,0 l/m 0 min 0 min 32 W/m 6,4 km/h (2 Bft) 97,87 %
25.01.2023 11:42 0,0 C 0,0 C -2,8 C 94 % 1034,4 hPa 0,0 l/m 0 min 0 min 32 W/m 6,4 km/h (2 Bft) 97,83 %
25.01.2023 11:44 0,0 C -0,6 C -2,8 C 94 % 1034,4 hPa 0,0 l/m 0 min 0 min 33 W/m 6,4 km/h (2 Bft) 97,87 %
25.01.2023 11:46 0,0 C -0,6 C -2,8 C 94 % 1034,4 hPa 0,0 l/m 0 min 0 min 33 W/m 6,4 km/h (2 Bft) 97,87 %
25.01.2023 11:48 0,0 C -0,6 C -2,8 C 94 % 1034,4 hPa 0,0 l/m 0 min 0 min 33 W/m 6,4 km/h (2 Bft) 95,74 %
25.01.2023 11:50 -0,1 C 0,0 C -2,8 C 94 % 1034,3 hPa 0,0 l/m 0 min 0 min 35 W/m 9,7 km/h (2 Bft) 95,74 %
25.01.2023 11:52 0,0 C -0,6 C -2,8 C 94 % 1034,3 hPa 0,0 l/m 0 min 0 min 35 W/m 9,7 km/h (2 Bft) 97,87 %
25.01.2023 11:54 -0,1 C 0,0 C -2,8 C 94 % 1034,3 hPa 0,0 l/m 0 min 0 min 35 W/m 6,4 km/h (2 Bft) 95,65 %
25.01.2023 11:56 0,0 C 0,0 C -2,8 C 94 % 1034,2 hPa 0,0 l/m 0 min 0 min 35 W/m 3,2 km/h (1 Bft) 97,87 %
25.01.2023 11:58 0,0 C 0,0 C -2,8 C 94 % 1034,2 hPa 0,0 l/m 0 min 0 min 33 W/m 9,7 km/h (2 Bft) 97,87 %
25.01.2023 12:00 0,0 C 0,0 C -2,8 C 94 % 1034,2 hPa 0,0 l/m 0 min 0 min 33 W/m 3,2 km/h (1 Bft) 97,87 %
25.01.2023 12:02 -0,1 C 0,0 C -2,8 C 94 % 1034,2 hPa 0,0 l/m 0 min 0 min 34 W/m 3,2 km/h (1 Bft) 97,87 %
25.01.2023 12:04 -0,1 C 0,0 C -2,8 C 94 % 1034,1 hPa 0,0 l/m 0 min 0 min 37 W/m 6,4 km/h (2 Bft) 95,74 %
25.01.2023 12:07 -0,1 C 0,0 C -2,8 C 94 % 1034,0 hPa 0,0 l/m 0 min 0 min 39 W/m 9,7 km/h (2 Bft) 98,61 %
25.01.2023 12:08 0,0 C 0,0 C -2,8 C 94 % 1034,0 hPa 0,0 l/m 0 min 0 min 40 W/m 6,4 km/h (2 Bft) 100,00 %
25.01.2023 12:12 0,0 C 0,0 C -2,8 C 94 % 1034,0 hPa 0,0 l/m 0 min 0 min 40 W/m 9,7 km/h (2 Bft) 98,00 %
25.01.2023 12:14 0,0 C -0,6 C -2,8 C 94 % 1034,0 hPa 0,0 l/m 0 min 0 min 40 W/m 3,2 km/h (1 Bft) 97,87 %
25.01.2023 12:16 -0,1 C -0,6 C -2,8 C 94 % 1034,0 hPa 0,0 l/m 0 min 0 min 40 W/m 3,2 km/h (1 Bft) 97,87 %
25.01.2023 12:18 -0,1 C -0,6 C -2,8 C 94 % 1034,0 hPa 0,0 l/m 0 min 0 min 40 W/m 3,2 km/h (1 Bft) 97,87 %
25.01.2023 12:20 -0,1 C -0,6 C -2,8 C 94 % 1033,9 hPa 0,0 l/m 0 min 0 min 40 W/m 6,4 km/h (2 Bft) 97,87 %
25.01.2023 12:22 -0,1 C -0,6 C -2,8 C 94 % 1033,9 hPa 0,0 l/m 0 min 0 min 40 W/m 3,2 km/h (1 Bft) 39,39 %
25.01.2023 12:24 -0,1 C -0,6 C -2,8 C 94 % 1033,7 hPa 0,0 l/m 0 min 0 min 39 W/m 6,4 km/h (2 Bft) 95,74 %
25.01.2023 12:26 -0,1 C -0,6 C -2,8 C 94 % 1033,7 hPa 0,0 l/m 0 min 0 min 38 W/m 3,2 km/h (1 Bft) 100,00 %
25.01.2023 12:28 -0,1 C -0,6 C -2,8 C 94 % 1033,7 hPa 0,0 l/m 0 min 0 min 37 W/m 3,2 km/h (1 Bft) 100,00 %
25.01.2023 12:33 -0,1 C 0,0 C -2,8 C 94 % 1033,6 hPa 0,0 l/m 0 min 0 min 36 W/m 6,4 km/h (2 Bft) 100,00 %
25.01.2023 12:34 -0,1 C 0,0 C -2,8 C 94 % 1033,6 hPa 0,0 l/m 0 min 0 min 37 W/m 3,2 km/h (1 Bft) 100,00 %
25.01.2023 12:36 -0,1 C 0,0 C -2,8 C 94 % 1033,6 hPa 0,0 l/m 0 min 0 min 37 W/m 6,4 km/h (2 Bft) 95,74 %
25.01.2023 12:38 -0,1 C 0,0 C -2,8 C 94 % 1033,5 hPa 0,0 l/m 0 min 0 min 39 W/m 9,7 km/h (2 Bft) 97,87 %
25.01.2023 12:40 -0,1 C 0,0 C -2,8 C 94 % 1033,5 hPa 0,0 l/m 0 min 0 min 39 W/m 6,4 km/h (2 Bft) 97,87 %
25.01.2023 12:42 -0,1 C -0,6 C -2,8 C 93 % 1033,4 hPa 0,0 l/m 0 min 0 min 40 W/m 3,2 km/h (1 Bft) 97,87 %
25.01.2023 12:44 -0,1 C -0,6 C -2,8 C 93 % 1033,4 hPa 0,0 l/m 0 min 0 min 40 W/m 3,2 km/h (1 Bft) 97,87 %
25.01.2023 12:46 -0,1 C -0,6 C -2,8 C 93 % 1033,3 hPa 0,0 l/m 0 min 0 min 40 W/m 3,2 km/h (1 Bft) 95,74 %
25.01.2023 12:48 -0,1 C 0,0 C -2,8 C 93 % 1033,3 hPa 0,0 l/m 0 min 0 min 40 W/m 3,2 km/h (1 Bft) 95,65 %
25.01.2023 12:50 -0,1 C 0,0 C -2,8 C 93 % 1033,3 hPa 0,0 l/m 0 min 0 min 40 W/m 3,2 km/h (1 Bft) 95,74 %
25.01.2023 12:52 -0,1 C 0,0 C -2,8 C 93 % 1033,2 hPa 0,0 l/m 0 min 0 min 42 W/m 3,2 km/h (1 Bft) 97,87 %
25.01.2023 12:54 -0,1 C -0,6 C -2,8 C 93 % 1033,2 hPa 0,0 l/m 0 min 0 min 42 W/m 3,2 km/h (1 Bft) 95,74 %
25.01.2023 12:56 -0,1 C 0,0 C -2,8 C 93 % 1033,2 hPa 0,0 l/m 0 min 0 min 42 W/m 3,2 km/h (1 Bft) 100,00 %
25.01.2023 12:58 -0,1 C 0,0 C -2,8 C 93 % 1033,2 hPa 0,0 l/m 0 min 0 min 43 W/m 3,2 km/h (1 Bft) 100,00 %
25.01.2023 13:00 -0,1 C 0,0 C -2,8 C 93 % 1033,0 hPa 0,0 l/m 0 min 0 min 44 W/m 3,2 km/h (1 Bft) 97,87 %
25.01.2023 13:02 -0,1 C 0,0 C -2,8 C 93 % 1033,0 hPa 0,0 l/m 0 min 0 min 40 W/m 6,4 km/h (2 Bft) 95,65 %
25.01.2023 13:04 -0,1 C 0,0 C -2,8 C 93 % 1032,9 hPa 0,0 l/m 0 min 0 min 40 W/m 3,2 km/h (1 Bft) 100,00 %
25.01.2023 13:06 0,0 C 0,0 C -2,8 C 93 % 1032,8 hPa 0,0 l/m 0 min 0 min 41 W/m 3,2 km/h (1 Bft) 98,31 %
25.01.2023 13:08 0,0 C 0,0 C -2,8 C 93 % 1032,8 hPa 0,0 l/m 0 min 0 min 40 W/m 12,9 km/h (3 Bft) 97,14 %
25.01.2023 13:10 0,0 C 0,0 C -2,8 C 93 % 1032,7 hPa 0,0 l/m 0 min 0 min 40 W/m 6,4 km/h (2 Bft) 97,87 %
25.01.2023 13:12 0,0 C 0,0 C -2,8 C 93 % 1032,7 hPa 0,0 l/m 0 min 0 min 40 W/m 6,4 km/h (2 Bft) 97,87 %
25.01.2023 13:14 0,0 C 0,0 C -2,8 C 93 % 1032,6 hPa 0,0 l/m 0 min 0 min 40 W/m 6,4 km/h (2 Bft) 95,65 %
25.01.2023 13:16 0,0 C 0,0 C -2,8 C 93 % 1032,6 hPa 0,0 l/m 0 min 0 min 40 W/m 6,4 km/h (2 Bft) 95,74 %
25.01.2023 13:18 -0,1 C -0,6 C -2,8 C 93 % 1032,6 hPa 0,0 l/m 0 min 0 min 40 W/m 6,4 km/h (2 Bft) 97,87 %
25.01.2023 13:20 -0,1 C -0,6 C -2,8 C 93 % 1032,4 hPa 0,0 l/m 0 min 0 min 39 W/m 0,0 km/h (0 Bft) 95,74 %
25.01.2023 13:22 -0,1 C -0,6 C -2,8 C 93 % 1032,4 hPa 0,0 l/m 0 min 0 min 39 W/m 6,4 km/h (2 Bft) 95,74 %
25.01.2023 13:24 -0,1 C -0,6 C -2,8 C 93 % 1032,4 hPa 0,0 l/m 0 min 0 min 39 W/m 6,4 km/h (2 Bft) 97,87 %
25.01.2023 13:26 -0,1 C -0,6 C -2,8 C 93 % 1032,3 hPa 0,0 l/m 0 min 0 min 39 W/m 0,0 km/h (0 Bft) 93,62 %
25.01.2023 13:28 -0,1 C -0,6 C -2,8 C 93 % 1032,2 hPa 0,0 l/m 0 min 0 min 39 W/m 0,0 km/h (0 Bft) 95,65 %
25.01.2023 13:30 -0,1 C -0,6 C -2,8 C 93 % 1032,2 hPa 0,0 l/m 0 min 0 min 39 W/m 0,0 km/h (0 Bft) 91,49 %
25.01.2023 13:32 -0,1 C -0,6 C -2,8 C 93 % 1032,2 hPa 0,0 l/m 0 min 0 min 39 W/m 0,0 km/h (0 Bft) 97,87 %
25.01.2023 13:34 -0,1 C 0,0 C -2,8 C 93 % 1032,1 hPa 0,0 l/m 0 min 0 min 39 W/m 0,0 km/h (0 Bft) 95,74 %
25.01.2023 13:36 -0,1 C -0,6 C -2,8 C 93 % 1032,1 hPa 0,0 l/m 0 min 0 min 39 W/m 9,7 km/h (2 Bft) 95,74 %
25.01.2023 13:38 -0,1 C -0,6 C -2,8 C 93 % 1032,0 hPa 0,0 l/m 0 min 0 min 40 W/m 6,4 km/h (2 Bft) 91,49 %
25.01.2023 13:40 -0,1 C -0,6 C -2,8 C 93 % 1032,0 hPa 0,0 l/m 0 min 0 min 39 W/m 6,4 km/h (2 Bft) 95,74 %
25.01.2023 13:42 -0,1 C -0,6 C -2,8 C 93 % 1031,9 hPa 0,0 l/m 0 min 0 min 37 W/m 6,4 km/h (2 Bft) 95,65 %
25.01.2023 13:44 -0,1 C -0,6 C -2,8 C 93 % 1031,9 hPa 0,0 l/m 0 min 0 min 37 W/m 9,7 km/h (2 Bft) 91,49 %
25.01.2023 13:46 -0,1 C 0,0 C -2,8 C 93 % 1031,9 hPa 0,0 l/m 0 min 0 min 37 W/m 3,2 km/h (1 Bft) 93,62 %
25.01.2023 13:48 -0,1 C 0,0 C -2,8 C 93 % 1031,8 hPa 0,0 l/m 0 min 0 min 37 W/m 6,4 km/h (2 Bft) 95,74 %
25.01.2023 13:50 0,0 C 0,0 C -2,8 C 93 % 1031,8 hPa 0,0 l/m 0 min 0 min 37 W/m 6,4 km/h (2 Bft) 93,62 %
25.01.2023 13:52 0,0 C 0,0 C -2,8 C 93 % 1031,7 hPa 0,0 l/m 0 min 0 min 37 W/m 6,4 km/h (2 Bft) 95,74 %
25.01.2023 13:54 0,0 C 0,0 C -2,8 C 93 % 1031,7 hPa 0,0 l/m 0 min 0 min 36 W/m 3,2 km/h (1 Bft) 93,62 %
25.01.2023 13:56 0,0 C 0,0 C -2,8 C 93 % 1031,6 hPa 0,0 l/m 0 min 0 min 33 W/m 3,2 km/h (1 Bft) 95,65 %
25.01.2023 13:58 0,0 C 0,0 C -2,8 C 93 % 1031,6 hPa 0,0 l/m 0 min 0 min 33 W/m 3,2 km/h (1 Bft) 95,74 %
25.01.2023 14:00 0,1 C 0,0 C -2,8 C 93 % 1031,6 hPa 0,0 l/m 0 min 0 min 35 W/m 0,0 km/h (0 Bft) 100,00 %
25.01.2023 14:02 0,1 C 0,0 C -2,8 C 93 % 1031,5 hPa 0,0 l/m 0 min 0 min 35 W/m 0,0 km/h (0 Bft) 100,00 %
25.01.2023 14:04 0,1 C 0,0 C -2,8 C 93 % 1031,5 hPa 0,0 l/m 0 min 0 min 35 W/m 6,4 km/h (2 Bft) 97,87 %
25.01.2023 14:06 0,1 C 0,0 C -2,8 C 93 % 1031,4 hPa 0,0 l/m 0 min 0 min 37 W/m 6,4 km/h (2 Bft) 100,00 %
25.01.2023 14:08 0,1 C 0,0 C -2,8 C 93 % 1031,4 hPa 0,0 l/m 0 min 0 min 36 W/m 6,4 km/h (2 Bft) 100,00 %
25.01.2023 14:10 0,1 C 0,0 C -2,8 C 93 % 1031,4 hPa 0,0 l/m 0 min 0 min 35 W/m 6,4 km/h (2 Bft) 100,00 %
25.01.2023 14:12 0,1 C 0,0 C -2,8 C 93 % 1031,3 hPa 0,0 l/m 0 min 0 min 33 W/m 3,2 km/h (1 Bft) 100,00 %
25.01.2023 14:14 0,1 C 0,0 C -2,8 C 93 % 1031,3 hPa 0,0 l/m 0 min 0 min 32 W/m 9,7 km/h (2 Bft) 97,87 %
25.01.2023 14:16 0,1 C 0,0 C -2,8 C 93 % 1031,3 hPa 0,0 l/m 0 min 0 min 32 W/m 6,4 km/h (2 Bft) 100,00 %
25.01.2023 14:18 0,1 C 0,0 C -2,8 C 93 % 1031,3 hPa 0,0 l/m 0 min 0 min 33 W/m 6,4 km/h (2 Bft) 100,00 %
25.01.2023 14:20 0,1 C 0,0 C -2,8 C 93 % 1031,2 hPa 0,0 l/m 0 min 0 min 33 W/m 9,7 km/h (2 Bft) 100,00 %
25.01.2023 14:22 0,1 C 0,0 C -2,8 C 93 % 1031,2 hPa 0,0 l/m 0 min 0 min 32 W/m 6,4 km/h (2 Bft) 100,00 %
25.01.2023 14:24 0,1 C 0,0 C -2,8 C 93 % 1031,1 hPa 0,0 l/m 0 min 0 min 30 W/m 3,2 km/h (1 Bft) 97,87 %
25.01.2023 14:26 0,1 C 0,0 C -2,8 C 93 % 1031,1 hPa 0,0 l/m 0 min 0 min 30 W/m 3,2 km/h (1 Bft) 97,87 %
25.01.2023 14:28 0,1 C 0,0 C -2,8 C 93 % 1031,0 hPa 0,0 l/m 0 min 0 min 29 W/m 3,2 km/h (1 Bft) 100,00 %
25.01.2023 14:30 0,1 C 0,0 C -2,8 C 93 % 1031,0 hPa 0,0 l/m 0 min 0 min 30 W/m 3,2 km/h (1 Bft) 100,00 %
25.01.2023 14:32 0,1 C 0,0 C -2,8 C 93 % 1031,0 hPa 0,0 l/m 0 min 0 min 29 W/m 3,2 km/h (1 Bft) 97,87 %
25.01.2023 14:34 0,1 C 0,0 C -2,8 C 93 % 1031,0 hPa 0,0 l/m 0 min 0 min 28 W/m 3,2 km/h (1 Bft) 100,00 %
25.01.2023 14:36 0,1 C 0,0 C -2,8 C 93 % 1030,9 hPa 0,0 l/m 0 min 0 min 28 W/m 0,0 km/h (0 Bft) 100,00 %
25.01.2023 14:38 0,1 C 0,0 C -2,8 C 93 % 1030,9 hPa 0,0 l/m 0 min 0 min 28 W/m 0,0 km/h (0 Bft) 100,00 %
25.01.2023 14:40 0,2 C 0,0 C -2,8 C 93 % 1030,9 hPa 0,0 l/m 0 min 0 min 28 W/m 6,4 km/h (2 Bft) 97,87 %
25.01.2023 14:42 0,2 C 0,0 C -2,8 C 93 % 1030,8 hPa 0,0 l/m 0 min 0 min 28 W/m 9,7 km/h (2 Bft) 100,00 %
25.01.2023 14:44 0,2 C 0,0 C -2,8 C 93 % 1030,9 hPa 0,0 l/m 0 min 0 min 28 W/m 3,2 km/h (1 Bft) 100,00 %
25.01.2023 14:46 0,2 C 0,0 C -2,8 C 93 % 1030,9 hPa 0,0 l/m 0 min 0 min 28 W/m 9,7 km/h (2 Bft) 97,87 %
25.01.2023 14:48 0,2 C 0,0 C -2,8 C 93 % 1030,9 hPa 0,0 l/m 0 min 0 min 27 W/m 6,4 km/h (2 Bft) 97,83 %
25.01.2023 14:50 0,3 C 0,0 C -2,8 C 93 % 1030,9 hPa 0,0 l/m 0 min 0 min 26 W/m 6,4 km/h (2 Bft) 95,74 %
25.01.2023 14:52 0,3 C 0,0 C -2,8 C 93 % 1030,9 hPa 0,0 l/m 0 min 0 min 26 W/m 6,4 km/h (2 Bft) 97,87 %
25.01.2023 14:54 0,3 C 0,0 C -2,8 C 93 % 1030,9 hPa 0,0 l/m 0 min 0 min 25 W/m 6,4 km/h (2 Bft) 97,87 %
25.01.2023 14:56 0,2 C 0,0 C -2,8 C 93 % 1030,9 hPa 0,0 l/m 0 min 0 min 25 W/m 6,4 km/h (2 Bft) 97,87 %
25.01.2023 14:58 0,2 C 0,0 C -2,8 C 93 % 1030,8 hPa 0,0 l/m 0 min 0 min 24 W/m 6,4 km/h (2 Bft) 97,87 %
25.01.2023 15:00 0,2 C 0,0 C -2,8 C 93 % 1030,8 hPa 0,0 l/m 0 min 0 min 23 W/m 3,2 km/h (1 Bft) 97,87 %
25.01.2023 15:02 0,2 C 0,0 C -2,8 C 93 % 1030,7 hPa 0,0 l/m 0 min 0 min 22 W/m 3,2 km/h (1 Bft) 97,83 %
25.01.2023 15:04 0,2 C 0,0 C -2,8 C 93 % 1030,7 hPa 0,0 l/m 0 min 0 min 22 W/m 0,0 km/h (0 Bft) 97,87 %
25.01.2023 15:06 0,2 C 0,0 C -2,8 C 93 % 1030,6 hPa 0,0 l/m 0 min 0 min 22 W/m 3,2 km/h (1 Bft) 96,61 %
25.01.2023 15:08 0,2 C 0,0 C -2,8 C 93 % 1030,7 hPa 0,0 l/m 0 min 0 min 22 W/m 3,2 km/h (1 Bft) 97,14 %
25.01.2023 15:10 0,2 C 0,0 C -2,8 C 93 % 1030,7 hPa 0,0 l/m 0 min 0 min 23 W/m 6,4 km/h (2 Bft) 97,87 %
25.01.2023 15:12 0,2 C 0,0 C -2,8 C 93 % 1030,7 hPa 0,0 l/m 0 min 0 min 21 W/m 3,2 km/h (1 Bft) 97,87 %
25.01.2023 15:14 0,2 C 0,0 C -2,8 C 93 % 1030,7 hPa 0,0 l/m 0 min 0 min 21 W/m 3,2 km/h (1 Bft) 95,65 %
25.01.2023 15:16 0,2 C -0,6 C -2,8 C 93 % 1030,7 hPa 0,0 l/m 0 min 0 min 19 W/m 6,4 km/h (2 Bft) 95,74 %
25.01.2023 15:18 0,2 C 0,0 C -2,8 C 93 % 1030,7 hPa 0,0 l/m 0 min 0 min 19 W/m 3,2 km/h (1 Bft) 97,87 %
25.01.2023 15:20 0,2 C 0,0 C -2,8 C 93 % 1030,7 hPa 0,0 l/m 0 min 0 min 19 W/m 6,4 km/h (2 Bft) 97,87 %
25.01.2023 15:22 0,2 C 0,0 C -2,8 C 93 % 1030,7 hPa 0,0 l/m 0 min 0 min 18 W/m 3,2 km/h (1 Bft) 95,74 %
25.01.2023 15:24 0,2 C 0,0 C -2,8 C 93 % 1030,7 hPa 0,0 l/m 0 min 0 min 18 W/m 6,4 km/h (2 Bft) 97,87 %
25.01.2023 15:26 0,2 C 0,0 C -2,8 C 93 % 1030,7 hPa 0,0 l/m 0 min 0 min 18 W/m 6,4 km/h (2 Bft) 52,27 %
25.01.2023 15:28 0,2 C 0,0 C -2,8 C 93 % 1030,7 hPa 0,0 l/m 0 min 0 min 17 W/m 6,4 km/h (2 Bft) 95,65 %
25.01.2023 15:30 0,2 C 0,0 C -2,8 C 93 % 1030,6 hPa 0,0 l/m 0 min 0 min 16 W/m 3,2 km/h (1 Bft) 95,74 %
25.01.2023 15:32 0,2 C 0,0 C -2,8 C 93 % 1030,6 hPa 0,0 l/m 0 min 0 min 16 W/m 0,0 km/h (0 Bft) 95,74 %
25.01.2023 15:34 0,2 C 0,0 C -2,8 C 93 % 1030,5 hPa 0,0 l/m 0 min 0 min 16 W/m 0,0 km/h (0 Bft) 95,74 %
25.01.2023 15:36 0,2 C 0,0 C -2,8 C 93 % 1030,5 hPa 0,0 l/m 0 min 0 min 16 W/m 6,4 km/h (2 Bft) 93,62 %
25.01.2023 15:38 0,2 C 0,0 C -2,8 C 93 % 1030,5 hPa 0,0 l/m 0 min 0 min 16 W/m 3,2 km/h (1 Bft) 97,87 %
25.01.2023 15:40 0,2 C 0,0 C -2,8 C 93 % 1030,5 hPa 0,0 l/m 0 min 0 min 16 W/m 3,2 km/h (1 Bft) 97,83 %
25.01.2023 15:42 0,2 C 0,0 C -2,8 C 93 % 1030,6 hPa 0,0 l/m 0 min 0 min 16 W/m 3,2 km/h (1 Bft) 97,87 %
25.01.2023 15:44 0,2 C 0,0 C -2,8 C 93 % 1030,5 hPa 0,0 l/m 0 min 0 min 14 W/m 6,4 km/h (2 Bft) 100,00 %
25.01.2023 15:46 0,2 C 0,0 C -2,8 C 93 % 1030,4 hPa 0,0 l/m 0 min 0 min 14 W/m 6,4 km/h (2 Bft) 97,87 %
25.01.2023 15:48 0,2 C -0,6 C -2,8 C 93 % 1030,5 hPa 0,0 l/m 0 min 0 min 14 W/m 6,4 km/h (2 Bft) 97,87 %
25.01.2023 15:50 0,2 C -0,6 C -2,8 C 93 % 1030,4 hPa 0,0 l/m 0 min 0 min 14 W/m 6,4 km/h (2 Bft) 93,62 %
25.01.2023 15:52 0,2 C -0,6 C -2,8 C 93 % 1030,3 hPa 0,0 l/m 0 min 0 min 14 W/m 6,4 km/h (2 Bft) 100,00 %
25.01.2023 15:54 0,1 C -0,6 C -2,8 C 93 % 1030,3 hPa 0,0 l/m 0 min 0 min 12 W/m 3,2 km/h (1 Bft) 100,00 %
25.01.2023 15:56 0,1 C -0,6 C -2,8 C 93 % 1030,3 hPa 0,0 l/m 0 min 0 min 12 W/m 6,4 km/h (2 Bft) 97,87 %
25.01.2023 15:58 0,1 C -0,6 C -2,8 C 93 % 1030,3 hPa 0,0 l/m 0 min 0 min 12 W/m 19,3 km/h (3 Bft) 97,87 %
25.01.2023 16:00 0,1 C -0,6 C -2,8 C 93 % 1030,3 hPa 0,0 l/m 0 min 0 min 12 W/m 6,4 km/h (2 Bft) 100,00 %
25.01.2023 16:02 0,1 C -0,6 C -2,8 C 93 % 1030,3 hPa 0,0 l/m 0 min 0 min 12 W/m 6,4 km/h (2 Bft) 100,00 %
25.01.2023 16:04 0,1 C -0,6 C -2,8 C 93 % 1030,3 hPa 0,0 l/m 0 min 0 min 12 W/m 6,4 km/h (2 Bft) 100,00 %
25.01.2023 16:06 0,0 C -0,6 C -2,8 C 93 % 1030,3 hPa 0,0 l/m 0 min 0 min 12 W/m 6,4 km/h (2 Bft) 100,00 %
25.01.2023 16:08 0,0 C -0,6 C -2,8 C 93 % 1030,3 hPa 0,0 l/m 0 min 0 min 12 W/m 6,4 km/h (2 Bft) 100,00 %
25.01.2023 16:10 0,0 C -0,6 C -2,8 C 93 % 1030,3 hPa 0,0 l/m 0 min 0 min 11 W/m 3,2 km/h (1 Bft) 100,00 %
25.01.2023 16:12 0,0 C -0,6 C -2,8 C 93 % 1030,2 hPa 0,0 l/m 0 min 0 min 11 W/m 6,4 km/h (2 Bft) 100,00 %
25.01.2023 16:14 0,0 C -0,6 C -2,8 C 93 % 1030,2 hPa 0,0 l/m 0 min 0 min 11 W/m 3,2 km/h (1 Bft) 97,87 %
25.01.2023 16:16 0,0 C -0,6 C -2,8 C 93 % 1030,2 hPa 0,0 l/m 0 min 0 min 9 W/m 3,2 km/h (1 Bft) 95,74 %
25.01.2023 16:18 0,0 C -0,6 C -2,8 C 93 % 1030,2 hPa 0,0 l/m 0 min 0 min 9 W/m 6,4 km/h (2 Bft) 97,87 %
25.01.2023 16:20 0,0 C -0,6 C -2,8 C 93 % 1030,1 hPa 0,0 l/m 0 min 0 min 9 W/m 3,2 km/h (1 Bft) 97,83 %
25.01.2023 16:22 0,0 C -0,6 C -2,8 C 93 % 1030,1 hPa 0,0 l/m 0 min 0 min 9 W/m 6,4 km/h (2 Bft) 91,49 %
25.01.2023 16:24 0,0 C -0,6 C -2,8 C 93 % 1030,1 hPa 0,0 l/m 0 min 0 min 9 W/m 6,4 km/h (2 Bft) 95,74 %
25.01.2023 16:26 0,0 C -0,6 C -2,8 C 93 % 1030,1 hPa 0,0 l/m 0 min 0 min 8 W/m 3,2 km/h (1 Bft) 97,87 %
25.01.2023 16:28 -0,1 C -0,6 C -2,8 C 93 % 1030,1 hPa 0,0 l/m 0 min 0 min 7 W/m 0,0 km/h (0 Bft) 93,62 %
25.01.2023 16:30 -0,1 C -0,6 C -2,8 C 93 % 1030,1 hPa 0,0 l/m 0 min 0 min 7 W/m 3,2 km/h (1 Bft) 97,87 %
25.01.2023 16:32 -0,1 C -0,6 C -2,8 C 93 % 1030,1 hPa 0,0 l/m 0 min 0 min 7 W/m 3,2 km/h (1 Bft) 97,83 %
25.01.2023 16:34 -0,1 C -0,6 C -3,3 C 93 % 1030,0 hPa 0,0 l/m 0 min 0 min 6 W/m 3,2 km/h (1 Bft) 97,87 %
25.01.2023 16:36 -0,1 C -0,6 C -2,8 C 93 % 1030,0 hPa 0,0 l/m 0 min 0 min 5 W/m 0,0 km/h (0 Bft) 93,62 %
25.01.2023 16:38 -0,1 C -0,6 C -2,8 C 93 % 1030,0 hPa 0,0 l/m 0 min 0 min 5 W/m 3,2 km/h (1 Bft) 97,87 %
25.01.2023 16:40 -0,1 C -0,6 C -3,3 C 93 % 1030,0 hPa 0,0 l/m 0 min 0 min 5 W/m 3,2 km/h (1 Bft) 95,74 %
25.01.2023 16:42 -0,1 C -0,6 C -2,8 C 93 % 1030,0 hPa 0,0 l/m 0 min 0 min 5 W/m 6,4 km/h (2 Bft) 95,74 %
25.01.2023 16:44 -0,1 C -0,6 C -2,8 C 93 % 1030,0 hPa 0,0 l/m 0 min 0 min 4 W/m 6,4 km/h (2 Bft) 97,87 %
25.01.2023 16:46 -0,1 C -0,6 C -3,3 C 93 % 1030,0 hPa 0,0 l/m 0 min 0 min 0 W/m 6,4 km/h (2 Bft) 97,83 %
25.01.2023 16:48 -0,1 C -0,6 C -3,3 C 93 % 1029,9 hPa 0,0 l/m 0 min 0 min 0 W/m 6,4 km/h (2 Bft) 97,87 %
25.01.2023 16:53 -0,2 C -0,6 C -3,3 C 93 % 1029,8 hPa 0,0 l/m 0 min 0 min 0 W/m 6,4 km/h (2 Bft) 95,45 %
25.01.2023 16:54 -0,2 C -0,6 C -3,3 C 93 % 1029,8 hPa 0,0 l/m 0 min 0 min 0 W/m 0,0 km/h (0 Bft) 100,00 %
25.01.2023 16:56 -0,2 C -0,6 C -3,3 C 93 % 1029,8 hPa 0,0 l/m 0 min 0 min 0 W/m 3,2 km/h (1 Bft) 97,78 %
25.01.2023 16:58 -0,2 C -0,6 C -3,3 C 93 % 1029,9 hPa 0,0 l/m 0 min 0 min 0 W/m 3,2 km/h (1 Bft) 97,87 %
25.01.2023 17:00 -0,2 C -0,6 C -3,3 C 93 % 1029,8 hPa 0,0 l/m 0 min 0 min 0 W/m 3,2 km/h (1 Bft) 97,87 %
25.01.2023 17:02 -0,2 C -0,6 C -3,3 C 93 % 1029,8 hPa 0,0 l/m 0 min 0 min 0 W/m 3,2 km/h (1 Bft) 97,87 %
25.01.2023 17:04 -0,2 C -0,6 C -3,3 C 93 % 1029,7 hPa 0,0 l/m 0 min 0 min 0 W/m 3,2 km/h (1 Bft) 97,87 %
25.01.2023 17:06 -0,2 C -0,6 C -3,3 C 93 % 1029,7 hPa 0,0 l/m 0 min 0 min 0 W/m 3,2 km/h (1 Bft) 100,00 %
25.01.2023 17:08 -0,2 C -0,6 C -3,3 C 93 % 1029,7 hPa 0,0 l/m 0 min 0 min 0 W/m 6,4 km/h (2 Bft) 94,29 %
25.01.2023 17:10 -0,2 C -0,6 C -3,3 C 93 % 1029,7 hPa 0,0 l/m 0 min 0 min 0 W/m 3,2 km/h (1 Bft) 97,87 %
25.01.2023 17:16 -0,3 C -1,1 C -3,3 C 93 % 1029,6 hPa 0,0 l/m 0 min 0 min 0 W/m 9,7 km/h (2 Bft) 98,46 %
25.01.2023 17:18 -0,3 C -1,1 C -3,3 C 94 % 1029,7 hPa 0,0 l/m 0 min 0 min 0 W/m 12,9 km/h (3 Bft) 91,43 %
25.01.2023 17:20 -0,3 C -1,1 C -3,3 C 94 % 1029,7 hPa 0,0 l/m 0 min 0 min 0 W/m 6,4 km/h (2 Bft) 97,87 %
25.01.2023 17:22 -0,3 C -1,1 C -3,3 C 94 % 1029,7 hPa 0,0 l/m 0 min 0 min 0 W/m 6,4 km/h (2 Bft) 91,49 %
25.01.2023 17:24 -0,3 C -1,1 C -3,3 C 94 % 1029,6 hPa 0,0 l/m 0 min 0 min 0 W/m 6,4 km/h (2 Bft) 93,48 %
25.01.2023 17:26 -0,3 C -1,1 C -3,3 C 94 % 1029,7 hPa 0,0 l/m 0 min 0 min 0 W/m 9,7 km/h (2 Bft) 93,62 %
25.01.2023 17:28 -0,3 C -1,1 C -3,3 C 94 % 1029,6 hPa 0,0 l/m 0 min 0 min 0 W/m 3,2 km/h (1 Bft) 93,62 %
25.01.2023 17:30 -0,4 C -1,1 C -3,3 C 94 % 1029,6 hPa 0,0 l/m 0 min 0 min 0 W/m 3,2 km/h (1 Bft) 95,74 %
25.01.2023 17:32 -0,4 C -1,1 C -3,3 C 94 % 1029,6 hPa 0,0 l/m 0 min 0 min 0 W/m 3,2 km/h (1 Bft) 95,74 %
25.01.2023 17:34 -0,4 C -1,1 C -3,3 C 94 % 1029,7 hPa 0,0 l/m 0 min 0 min 0 W/m 3,2 km/h (1 Bft) 95,74 %
25.01.2023 17:36 -0,4 C -1,1 C -3,3 C 94 % 1029,7 hPa 0,0 l/m 0 min 0 min 0 W/m 3,2 km/h (1 Bft) 95,74 %
25.01.2023 17:38 -0,4 C -1,1 C -3,3 C 94 % 1029,7 hPa 0,0 l/m 0 min 0 min 0 W/m 0,0 km/h (0 Bft) 93,48 %
25.01.2023 17:40 -0,4 C -1,1 C -3,3 C 94 % 1029,8 hPa 0,0 l/m 0 min 0 min 0 W/m 0,0 km/h (0 Bft) 47,50 %
25.01.2023 17:42 -0,4 C -1,1 C -3,3 C 93 % 1029,8 hPa 0,0 l/m 0 min 0 min 0 W/m 6,4 km/h (2 Bft) 95,74 %
25.01.2023 17:44 -0,4 C -1,1 C -3,3 C 93 % 1029,7 hPa 0,0 l/m 0 min 0 min 0 W/m 3,2 km/h (1 Bft) 97,87 %
25.01.2023 17:46 -0,4 C -1,1 C -3,3 C 93 % 1029,6 hPa 0,0 l/m 0 min 0 min 0 W/m 6,4 km/h (2 Bft) 97,87 %
25.01.2023 17:48 -0,4 C -1,1 C -3,3 C 94 % 1029,5 hPa 0,0 l/m 0 min 0 min 0 W/m 6,4 km/h (2 Bft) 95,74 %
25.01.2023 17:50 -0,4 C -1,1 C -3,3 C 94 % 1029,5 hPa 0,0 l/m 0 min 0 min 0 W/m 6,4 km/h (2 Bft) 95,65 %
25.01.2023 17:52 -0,4 C -1,1 C -3,3 C 94 % 1029,5 hPa 0,0 l/m 0 min 0 min 0 W/m 3,2 km/h (1 Bft) 97,87 %
25.01.2023 17:54 -0,4 C -1,1 C -3,3 C 94 % 1029,5 hPa 0,0 l/m 0 min 0 min 0 W/m 6,4 km/h (2 Bft) 97,87 %
25.01.2023 17:56 -0,4 C -1,1 C -3,3 C 94 % 1029,6 hPa 0,0 l/m 0 min 0 min 0 W/m 6,4 km/h (2 Bft) 95,74 %
25.01.2023 17:58 -0,4 C -1,1 C -3,3 C 94 % 1029,6 hPa 0,0 l/m 0 min 0 min 0 W/m 6,4 km/h (2 Bft) 95,74 %
25.01.2023 18:00 -0,4 C -1,1 C -3,3 C 94 % 1029,6 hPa 0,0 l/m 0 min 0 min 0 W/m 6,4 km/h (2 Bft) 97,87 %
25.01.2023 18:02 -0,4 C -1,1 C -3,3 C 94 % 1029,5 hPa 0,0 l/m 0 min 0 min 0 W/m 3,2 km/h (1 Bft) 100,00 %
25.01.2023 18:04 -0,4 C -1,1 C -3,3 C 94 % 1029,5 hPa 0,0 l/m 0 min 0 min 0 W/m 9,7 km/h (2 Bft) 97,83 %
25.01.2023 18:07 -0,4 C -1,1 C -3,3 C 94 % 1029,5 hPa 0,0 l/m 0 min 0 min 0 W/m 6,4 km/h (2 Bft) 100,00 %
25.01.2023 18:08 -0,4 C -1,1 C -3,3 C 94 % 1029,5 hPa 0,0 l/m 0 min 0 min 0 W/m 3,2 km/h (1 Bft) 100,00 %
25.01.2023 18:10 -0,4 C -1,1 C -3,3 C 94 % 1029,5 hPa 0,0 l/m 0 min 0 min 0 W/m 9,7 km/h (2 Bft) 97,87 %
25.01.2023 18:12 -0,4 C -1,1 C -3,3 C 94 % 1029,5 hPa 0,0 l/m 0 min 0 min 0 W/m 9,7 km/h (2 Bft) 100,00 %
25.01.2023 18:14 -0,5 C -1,1 C -3,3 C 94 % 1029,5 hPa 0,0 l/m 0 min 0 min 0 W/m 9,7 km/h (2 Bft) 100,00 %
25.01.2023 18:16 -0,5 C -1,1 C -3,3 C 94 % 1029,5 hPa 0,0 l/m 0 min 0 min 0 W/m 6,4 km/h (2 Bft) 97,83 %
25.01.2023 18:18 -0,6 C -1,1 C -3,3 C 94 % 1029,4 hPa 0,0 l/m 0 min 0 min 0 W/m 6,4 km/h (2 Bft) 97,87 %
25.01.2023 18:20 -0,6 C -1,1 C -3,9 C 94 % 1029,4 hPa 0,0 l/m 0 min 0 min 0 W/m 6,4 km/h (2 Bft) 100,00 %
25.01.2023 18:22 -0,7 C -1,1 C -3,9 C 94 % 1029,5 hPa 0,0 l/m 0 min 0 min 0 W/m 3,2 km/h (1 Bft) 95,74 %
25.01.2023 18:24 -0,7 C -1,1 C -3,3 C 94 % 1029,4 hPa 0,0 l/m 0 min 0 min 0 W/m 6,4 km/h (2 Bft) 100,00 %
25.01.2023 18:26 -0,7 C -1,1 C -3,3 C 94 % 1029,4 hPa 0,0 l/m 0 min 0 min 0 W/m 6,4 km/h (2 Bft) 97,87 %
25.01.2023 18:28 -0,7 C -1,1 C -3,9 C 94 % 1029,5 hPa 0,0 l/m 0 min 0 min 0 W/m 6,4 km/h (2 Bft) 97,87 %
25.01.2023 18:30 -0,7 C -1,1 C -3,3 C 94 % 1029,5 hPa 0,0 l/m 0 min 0 min 0 W/m 3,2 km/h (1 Bft) 97,83 %
25.01.2023 18:32 -0,7 C -1,1 C -3,3 C 94 % 1029,5 hPa 0,0 l/m 0 min 0 min 0 W/m 3,2 km/h (1 Bft) 100,00 %
25.01.2023 18:34 -0,7 C -1,1 C -3,3 C 94 % 1029,5 hPa 0,0 l/m 0 min 0 min 0 W/m 6,4 km/h (2 Bft) 97,87 %
25.01.2023 18:36 -0,7 C -1,1 C -3,3 C 94 % 1029,5 hPa 0,0 l/m 0 min 0 min 0 W/m 6,4 km/h (2 Bft) 100,00 %
25.01.2023 18:38 -0,7 C -1,1 C -3,9 C 94 % 1029,5 hPa 0,0 l/m 0 min 0 min 0 W/m 3,2 km/h (1 Bft) 97,87 %
25.01.2023 18:40 -0,7 C -1,1 C -3,9 C 94 % 1029,5 hPa 0,0 l/m 0 min 0 min 0 W/m 9,7 km/h (2 Bft) 97,87 %
25.01.2023 18:42 -0,7 C -1,1 C -3,3 C 94 % 1029,5 hPa 0,0 l/m 0 min 0 min 0 W/m 6,4 km/h (2 Bft) 100,00 %
25.01.2023 18:44 -0,7 C -1,1 C -3,3 C 94 % 1029,5 hPa 0,0 l/m 0 min 0 min 0 W/m 9,7 km/h (2 Bft) 95,74 %
25.01.2023 18:46 -0,6 C -1,1 C -3,3 C 94 % 1029,5 hPa 0,0 l/m 0 min 0 min 0 W/m 12,9 km/h (3 Bft) 97,87 %
25.01.2023 18:48 -0,6 C -1,1 C -3,3 C 94 % 1029,6 hPa 0,0 l/m 0 min 0 min 0 W/m 12,9 km/h (3 Bft) 91,49 %
25.01.2023 18:50 -0,6 C -0,6 C -3,3 C 94 % 1029,6 hPa 0,0 l/m 0 min 0 min 0 W/m 12,9 km/h (3 Bft) 97,87 %
25.01.2023 18:52 -0,6 C -0,6 C -3,3 C 94 % 1029,6 hPa 0,0 l/m 0 min 0 min 0 W/m 19,3 km/h (3 Bft) 95,74 %
25.01.2023 18:54 -0,6 C -1,1 C -3,3 C 94 % 1029,6 hPa 0,0 l/m 0 min 0 min 0 W/m 9,7 km/h (2 Bft) 97,87 %
25.01.2023 18:56 -0,6 C -1,1 C -3,3 C 94 % 1029,6 hPa 0,0 l/m 0 min 0 min 0 W/m 12,9 km/h (3 Bft) 100,00 %
25.01.2023 18:58 -0,6 C -0,6 C -3,3 C 94 % 1029,6 hPa 0,0 l/m 0 min 0 min 0 W/m 6,4 km/h (2 Bft) 97,83 %
25.01.2023 19:00 -0,6 C -1,1 C -3,3 C 94 % 1029,5 hPa 0,0 l/m 0 min 0 min 0 W/m 6,4 km/h (2 Bft) 97,87 %
25.01.2023 19:02 -0,6 C -1,1 C -3,3 C 94 % 1029,5 hPa 0,0 l/m 0 min 0 min 0 W/m 12,9 km/h (3 Bft) 95,74 %
25.01.2023 19:04 -0,6 C -1,1 C -3,3 C 94 % 1029,5 hPa 0,0 l/m 0 min 0 min 0 W/m 12,9 km/h (3 Bft) 97,87 %
25.01.2023 19:06 -0,6 C -1,1 C -3,3 C 94 % 1029,4 hPa 0,0 l/m 0 min 0 min 0 W/m 12,9 km/h (3 Bft) 95,74 %
25.01.2023 19:08 -0,6 C -1,1 C -3,3 C 94 % 1029,4 hPa 0,0 l/m 0 min 0 min 0 W/m 12,9 km/h (3 Bft) 97,83 %
25.01.2023 19:10 -0,6 C -1,1 C -3,3 C 93 % 1029,4 hPa 0,0 l/m 0 min 0 min 0 W/m 6,4 km/h (2 Bft) 95,74 %
25.01.2023 19:12 -0,6 C -1,1 C -3,3 C 93 % 1029,4 hPa 0,0 l/m 0 min 0 min 0 W/m 12,9 km/h (3 Bft) 95,74 %
25.01.2023 19:14 -0,7 C -1,1 C -3,3 C 93 % 1029,4 hPa 0,0 l/m 0 min 0 min 0 W/m 6,4 km/h (2 Bft) 97,87 %
25.01.2023 19:16 -0,7 C -1,1 C -3,9 C 93 % 1029,3 hPa 0,0 l/m 0 min 0 min 0 W/m 12,9 km/h (3 Bft) 97,87 %
25.01.2023 19:18 -0,7 C -1,1 C -3,9 C 93 % 1029,3 hPa 0,0 l/m 0 min 0 min 0 W/m 6,4 km/h (2 Bft) 95,74 %
25.01.2023 19:20 -0,7 C -1,1 C -3,9 C 93 % 1029,2 hPa 0,0 l/m 0 min 0 min 0 W/m 6,4 km/h (2 Bft) 95,74 %
25.01.2023 19:22 -0,7 C -1,1 C -3,9 C 93 % 1029,2 hPa 0,0 l/m 0 min 0 min 0 W/m 6,4 km/h (2 Bft) 95,65 %
25.01.2023 19:24 -0,6 C -1,1 C -3,9 C 93 % 1029,2 hPa 0,0 l/m 0 min 0 min 0 W/m 6,4 km/h (2 Bft) 97,87 %
25.01.2023 19:26 -0,6 C -1,1 C -3,9 C 93 % 1029,1 hPa 0,0 l/m 0 min 0 min 0 W/m 6,4 km/h (2 Bft) 100,00 %
25.01.2023 19:28 -0,6 C -1,1 C -3,9 C 93 % 1029,1 hPa 0,0 l/m 0 min 0 min 0 W/m 6,4 km/h (2 Bft) 100,00 %
25.01.2023 19:30 -0,6 C -1,1 C -3,9 C 93 % 1029,0 hPa 0,0 l/m 0 min 0 min 0 W/m 9,7 km/h (2 Bft) 97,87 %
25.01.2023 19:32 -0,6 C -1,1 C -3,9 C 93 % 1029,0 hPa 0,0 l/m 0 min 0 min 0 W/m 3,2 km/h (1 Bft) 97,87 %
25.01.2023 19:34 -0,6 C -1,1 C -3,9 C 93 % 1029,0 hPa 0,0 l/m 0 min 0 min 0 W/m 6,4 km/h (2 Bft) 93,48 %
25.01.2023 19:36 -0,6 C -1,1 C -3,9 C 93 % 1029,0 hPa 0,0 l/m 0 min 0 min 0 W/m 6,4 km/h (2 Bft) 95,74 %
25.01.2023 19:38 -0,6 C -1,1 C -3,9 C 93 % 1029,0 hPa 0,0 l/m 0 min 0 min 0 W/m 3,2 km/h (1 Bft) 97,87 %
25.01.2023 19:40 -0,6 C -1,1 C -3,9 C 93 % 1029,0 hPa 0,0 l/m 0 min 0 min 0 W/m 6,4 km/h (2 Bft) 95,74 %
25.01.2023 19:42 -0,5 C -1,1 C -3,9 C 93 % 1029,0 hPa 0,0 l/m 0 min 0 min 0 W/m 9,7 km/h (2 Bft) 97,87 %
25.01.2023 19:44 -0,6 C -1,1 C -3,9 C 93 % 1028,9 hPa 0,0 l/m 0 min 0 min 0 W/m 6,4 km/h (2 Bft) 93,62 %
25.01.2023 19:46 -0,6 C -1,1 C -3,9 C 93 % 1028,9 hPa 0,0 l/m 0 min 0 min 0 W/m 6,4 km/h (2 Bft) 87,23 %
25.01.2023 19:48 -0,6 C -1,1 C -3,9 C 93 % 1028,8 hPa 0,0 l/m 0 min 0 min 0 W/m 6,4 km/h (2 Bft) 62,79 %
25.01.2023 19:50 -0,6 C -1,1 C -3,9 C 93 % 1028,7 hPa 0,0 l/m 0 min 0 min 0 W/m 6,4 km/h (2 Bft) 97,87 %
25.01.2023 19:52 -0,5 C -1,1 C -3,9 C 93 % 1028,6 hPa 0,0 l/m 0 min 0 min 0 W/m 3,2 km/h (1 Bft) 93,62 %
25.01.2023 19:54 -0,5 C -1,1 C -3,9 C 92 % 1028,6 hPa 0,0 l/m 0 min 0 min 0 W/m 6,4 km/h (2 Bft) 91,49 %
25.01.2023 19:56 -0,6 C -1,1 C -3,9 C 92 % 1028,5 hPa 0,0 l/m 0 min 0 min 0 W/m 6,4 km/h (2 Bft) 91,49 %
25.01.2023 19:58 -0,6 C -1,1 C -3,9 C 92 % 1028,5 hPa 0,0 l/m 0 min 0 min 0 W/m 6,4 km/h (2 Bft) 93,62 %
25.01.2023 20:00 -0,6 C -1,1 C -3,9 C 92 % 1028,5 hPa 0,0 l/m 0 min 0 min 0 W/m 6,4 km/h (2 Bft) 95,65 %
25.01.2023 20:02 -0,6 C -1,1 C -3,9 C 92 % 1028,5 hPa 0,0 l/m 0 min 0 min 0 W/m 6,4 km/h (2 Bft) 93,62 %
25.01.2023 20:04 -0,6 C -1,1 C -3,9 C 92 % 1028,4 hPa 0,0 l/m 0 min 0 min 0 W/m 3,2 km/h (1 Bft) 95,74 %
25.01.2023 20:06 -0,7 C -1,1 C -3,9 C 92 % 1028,4 hPa 0,0 l/m 0 min 0 min 0 W/m 3,2 km/h (1 Bft) 93,62 %
25.01.2023 20:08 -0,7 C -1,1 C -3,9 C 92 % 1028,3 hPa 0,0 l/m 0 min 0 min 0 W/m 0,0 km/h (0 Bft) 91,49 %
25.01.2023 20:10 -0,7 C -1,1 C -3,9 C 92 % 1028,3 hPa 0,0 l/m 0 min 0 min 0 W/m 0,0 km/h (0 Bft) 91,49 %
25.01.2023 20:12 -0,7 C -1,1 C -3,9 C 92 % 1028,3 hPa 0,0 l/m 0 min 0 min 0 W/m 6,4 km/h (2 Bft) 95,65 %
25.01.2023 20:14 -0,7 C -1,1 C -3,9 C 92 % 1028,2 hPa 0,0 l/m 0 min 0 min 0 W/m 3,2 km/h (1 Bft) 95,74 %
25.01.2023 20:16 -0,7 C -1,1 C -3,9 C 92 % 1028,2 hPa 0,0 l/m 0 min 0 min 0 W/m 3,2 km/h (1 Bft) 93,62 %
25.01.2023 20:18 -0,7 C -1,1 C -3,9 C 92 % 1028,1 hPa 0,0 l/m 0 min 0 min 0 W/m 0,0 km/h (0 Bft) 95,74 %
25.01.2023 20:20 -0,7 C -1,1 C -3,9 C 92 % 1028,1 hPa 0,0 l/m 0 min 0 min 0 W/m 3,2 km/h (1 Bft) 93,62 %
25.01.2023 20:22 -0,7 C -1,7 C -3,9 C 92 % 1028,1 hPa 0,0 l/m 0 min 0 min 0 W/m 6,4 km/h (2 Bft) 93,62 %
25.01.2023 20:24 -0,7 C -1,7 C -3,9 C 92 % 1028,1 hPa 0,0 l/m 0 min 0 min 0 W/m 3,2 km/h (1 Bft) 93,62 %
25.01.2023 20:26 -0,8 C -1,7 C -3,9 C 92 % 1028,1 hPa 0,0 l/m 0 min 0 min 0 W/m 3,2 km/h (1 Bft) 86,96 %
25.01.2023 20:28 -0,8 C -1,7 C -3,9 C 92 % 1028,1 hPa 0,0 l/m 0 min 0 min 0 W/m 3,2 km/h (1 Bft) 95,74 %
25.01.2023 20:30 -0,8 C -1,7 C -3,9 C 92 % 1028,0 hPa 0,0 l/m 0 min 0 min 0 W/m 3,2 km/h (1 Bft) 95,74 %
25.01.2023 20:32 -0,8 C -1,7 C -3,9 C 92 % 1027,9 hPa 0,0 l/m 0 min 0 min 0 W/m 3,2 km/h (1 Bft) 97,87 %
25.01.2023 20:34 -0,8 C -1,7 C -3,9 C 92 % 1027,8 hPa 0,0 l/m 0 min 0 min 0 W/m 0,0 km/h (0 Bft) 97,87 %
25.01.2023 20:36 -0,8 C -1,7 C -3,9 C 92 % 1027,8 hPa 0,0 l/m 0 min 0 min 0 W/m 3,2 km/h (1 Bft) 95,74 %
25.01.2023 20:38 -0,8 C -1,7 C -3,9 C 92 % 1027,8 hPa 0,0 l/m 0 min 0 min 0 W/m 6,4 km/h (2 Bft) 95,65 %
25.01.2023 20:40 -0,9 C -1,7 C -3,9 C 92 % 1027,8 hPa 0,0 l/m 0 min 0 min 0 W/m 6,4 km/h (2 Bft) 95,74 %
25.01.2023 20:42 -0,9 C -1,1 C -3,9 C 92 % 1027,8 hPa 0,0 l/m 0 min 0 min 0 W/m 3,2 km/h (1 Bft) 93,62 %
25.01.2023 20:44 -0,8 C -1,1 C -3,9 C 92 % 1027,8 hPa 0,0 l/m 0 min 0 min 0 W/m 3,2 km/h (1 Bft) 97,87 %
25.01.2023 20:46 -0,8 C -1,1 C -3,9 C 92 % 1027,8 hPa 0,0 l/m 0 min 0 min 0 W/m 6,4 km/h (2 Bft) 89,36 %
25.01.2023 20:48 -0,8 C -1,1 C -3,9 C 92 % 1027,8 hPa 0,0 l/m 0 min 0 min 0 W/m 6,4 km/h (2 Bft) 95,74 %
25.01.2023 20:50 -0,8 C -1,1 C -3,9 C 92 % 1027,9 hPa 0,0 l/m 0 min 0 min 0 W/m 6,4 km/h (2 Bft) 97,87 %
25.01.2023 20:52 -0,8 C -1,1 C -3,9 C 92 % 1028,0 hPa 0,0 l/m 0 min 0 min 0 W/m 6,4 km/h (2 Bft) 95,65 %
25.01.2023 20:54 -0,8 C -1,1 C -3,9 C 92 % 1028,0 hPa 0,0 l/m 0 min 0 min 0 W/m 6,4 km/h (2 Bft) 97,87 %
25.01.2023 20:56 -0,8 C -1,7 C -3,9 C 92 % 1027,9 hPa 0,0 l/m 0 min 0 min 0 W/m 3,2 km/h (1 Bft) 95,74 %
25.01.2023 20:58 -0,8 C -1,7 C -3,9 C 92 % 1027,9 hPa 0,0 l/m 0 min 0 min 0 W/m 3,2 km/h (1 Bft) 97,87 %
25.01.2023 21:00 -0,8 C -1,7 C -3,9 C 92 % 1027,8 hPa 0,0 l/m 0 min 0 min 0 W/m 3,2 km/h (1 Bft) 97,87 %
25.01.2023 21:02 -0,8 C -1,7 C -3,9 C 92 % 1027,8 hPa 0,0 l/m 0 min 0 min 0 W/m 0,0 km/h (0 Bft) 95,74 %
25.01.2023 21:04 -0,8 C -1,1 C -3,9 C 92 % 1027,7 hPa 0,0 l/m 0 min 0 min 0 W/m 6,4 km/h (2 Bft) 95,65 %
25.01.2023 21:06 -0,9 C -1,7 C -3,9 C 92 % 1027,7 hPa 0,0 l/m 0 min 0 min 0 W/m 12,9 km/h (3 Bft) 97,87 %
25.01.2023 21:08 -0,9 C -1,7 C -3,9 C 92 % 1027,6 hPa 0,0 l/m 0 min 0 min 0 W/m 3,2 km/h (1 Bft) 93,62 %
25.01.2023 21:10 -0,9 C -1,7 C -3,9 C 92 % 1027,6 hPa 0,0 l/m 0 min 0 min 0 W/m 6,4 km/h (2 Bft) 100,00 %
25.01.2023 21:12 -0,9 C -1,1 C -3,9 C 92 % 1027,6 hPa 0,0 l/m 0 min 0 min 0 W/m 3,2 km/h (1 Bft) 100,00 %
25.01.2023 21:14 -0,9 C -1,1 C -3,9 C 92 % 1027,6 hPa 0,0 l/m 0 min 0 min 0 W/m 3,2 km/h (1 Bft) 97,87 %
25.01.2023 21:16 -0,9 C -1,7 C -3,9 C 92 % 1027,6 hPa 0,0 l/m 0 min 0 min 0 W/m 6,4 km/h (2 Bft) 100,00 %
25.01.2023 21:18 -0,9 C -1,7 C -3,9 C 92 % 1027,6 hPa 0,0 l/m 0 min 0 min 0 W/m 6,4 km/h (2 Bft) 100,00 %
25.01.2023 21:20 -0,9 C -1,7 C -3,9 C 92 % 1027,5 hPa 0,0 l/m 0 min 0 min 0 W/m 3,2 km/h (1 Bft) 97,87 %
25.01.2023 21:22 -0,9 C -1,7 C -3,9 C 92 % 1027,6 hPa 0,0 l/m 0 min 0 min 0 W/m 3,2 km/h (1 Bft) 97,87 %
25.01.2023 21:24 -0,9 C -1,7 C -3,9 C 92 % 1027,6 hPa 0,0 l/m 0 min 0 min 0 W/m 9,7 km/h (2 Bft) 100,00 %
25.01.2023 21:26 -0,9 C -1,7 C -3,9 C 92 % 1027,6 hPa 0,0 l/m 0 min 0 min 0 W/m 9,7 km/h (2 Bft) 100,00 %
25.01.2023 21:28 -0,9 C -1,7 C -3,9 C 92 % 1027,6 hPa 0,0 l/m 0 min 0 min 0 W/m 6,4 km/h (2 Bft) 100,00 %
25.01.2023 21:30 -0,9 C -1,7 C -3,9 C 92 % 1027,5 hPa 0,0 l/m 0 min 0 min 0 W/m 3,2 km/h (1 Bft) 97,83 %
25.01.2023 21:32 -0,9 C -1,7 C -3,9 C 92 % 1027,6 hPa 0,0 l/m 0 min 0 min 0 W/m 6,4 km/h (2 Bft) 93,62 %
25.01.2023 21:34 -0,9 C -1,7 C -3,9 C 92 % 1027,6 hPa 0,0 l/m 0 min 0 min 0 W/m 6,4 km/h (2 Bft) 91,49 %
25.01.2023 21:36 -0,9 C -1,7 C -3,9 C 92 % 1027,6 hPa 0,0 l/m 0 min 0 min 0 W/m 6,4 km/h (2 Bft) 97,87 %
25.01.2023 21:38 -0,9 C -1,7 C -3,9 C 92 % 1027,5 hPa 0,0 l/m 0 min 0 min 0 W/m 3,2 km/h (1 Bft) 100,00 %
25.01.2023 21:40 -0,9 C -1,7 C -3,9 C 92 % 1027,4 hPa 0,0 l/m 0 min 0 min 0 W/m 6,4 km/h (2 Bft) 97,87 %
25.01.2023 21:42 -0,9 C -1,7 C -3,9 C 92 % 1027,4 hPa 0,0 l/m 0 min 0 min 0 W/m 6,4 km/h (2 Bft) 100,00 %
25.01.2023 21:44 -0,9 C -1,7 C -3,9 C 92 % 1027,4 hPa 0,0 l/m 0 min 0 min 0 W/m 6,4 km/h (2 Bft) 100,00 %
25.01.2023 21:46 -0,9 C -1,7 C -3,9 C 92 % 1027,5 hPa 0,0 l/m 0 min 0 min 0 W/m 6,4 km/h (2 Bft) 100,00 %
25.01.2023 21:48 -0,9 C -1,1 C -3,9 C 92 % 1027,5 hPa 0,0 l/m 0 min 0 min 0 W/m 6,4 km/h (2 Bft) 100,00 %
25.01.2023 21:50 -0,9 C -1,7 C -3,9 C 92 % 1027,5 hPa 0,0 l/m 0 min 0 min 0 W/m 6,4 km/h (2 Bft) 97,87 %
25.01.2023 21:52 -1,0 C -1,7 C -3,9 C 92 % 1027,4 hPa 0,0 l/m 0 min 0 min 0 W/m 6,4 km/h (2 Bft) 97,87 %
25.01.2023 21:54 -1,0 C -1,7 C -3,9 C 92 % 1027,4 hPa 0,0 l/m 0 min 0 min 0 W/m 3,2 km/h (1 Bft) 100,00 %
25.01.2023 21:56 -1,0 C -1,7 C -3,9 C 92 % 1027,3 hPa 0,0 l/m 0 min 0 min 0 W/m 6,4 km/h (2 Bft) 100,00 %
25.01.2023 21:58 -1,0 C -1,7 C -3,9 C 92 % 1027,2 hPa 0,0 l/m 0 min 0 min 0 W/m 3,2 km/h (1 Bft) 97,87 %
25.01.2023 22:00 -1,0 C -1,7 C -3,9 C 92 % 1027,2 hPa 0,0 l/m 0 min 0 min 0 W/m 3,2 km/h (1 Bft) 100,00 %
25.01.2023 22:02 -1,0 C -1,7 C -3,9 C 92 % 1027,1 hPa 0,0 l/m 0 min 0 min 0 W/m 6,4 km/h (2 Bft) 100,00 %
25.01.2023 22:04 -1,0 C -1,7 C -3,9 C 92 % 1027,2 hPa 0,0 l/m 0 min 0 min 0 W/m 3,2 km/h (1 Bft) 100,00 %
25.01.2023 22:06 -1,0 C -1,7 C -3,9 C 92 % 1027,2 hPa 0,0 l/m 0 min 0 min 0 W/m 6,4 km/h (2 Bft) 100,00 %
25.01.2023 22:08 -1,0 C -1,7 C -3,9 C 92 % 1027,2 hPa 0,0 l/m 0 min 0 min 0 W/m 6,4 km/h (2 Bft) 97,83 %
25.01.2023 22:10 -1,1 C -1,7 C -3,9 C 92 % 1027,2 hPa 0,0 l/m 0 min 0 min 0 W/m 3,2 km/h (1 Bft) 100,00 %
25.01.2023 22:12 -1,1 C -1,7 C -3,9 C 92 % 1027,2 hPa 0,0 l/m 0 min 0 min 0 W/m 6,4 km/h (2 Bft) 97,87 %
25.01.2023 22:14 -1,1 C -1,7 C -3,9 C 92 % 1027,2 hPa 0,0 l/m 0 min 0 min 0 W/m 6,4 km/h (2 Bft) 97,87 %
25.01.2023 22:16 -1,1 C -1,7 C -3,9 C 92 % 1027,2 hPa 0,0 l/m 0 min 0 min 0 W/m 9,7 km/h (2 Bft) 100,00 %
25.01.2023 22:18 -1,2 C -1,7 C -3,9 C 92 % 1027,2 hPa 0,0 l/m 0 min 0 min 0 W/m 12,9 km/h (3 Bft) 95,74 %
25.01.2023 22:20 -1,2 C -1,7 C -3,9 C 92 % 1027,2 hPa 0,0 l/m 0 min 0 min 0 W/m 9,7 km/h (2 Bft) 97,83 %
25.01.2023 22:22 -1,2 C -1,7 C -3,9 C 92 % 1027,3 hPa 0,0 l/m 0 min 0 min 0 W/m 6,4 km/h (2 Bft) 95,74 %
25.01.2023 22:24 -1,2 C -1,7 C -3,9 C 93 % 1027,3 hPa 0,0 l/m 0 min 0 min 0 W/m 3,2 km/h (1 Bft) 95,74 %
25.01.2023 22:26 -1,2 C -1,7 C -4,4 C 92 % 1027,3 hPa 0,0 l/m 0 min 0 min 0 W/m 3,2 km/h (1 Bft) 95,74 %
25.01.2023 22:28 -1,2 C -1,7 C -3,9 C 92 % 1027,3 hPa 0,0 l/m 0 min 0 min 0 W/m 6,4 km/h (2 Bft) 95,74 %
25.01.2023 22:30 -1,2 C -1,7 C -3,9 C 92 % 1027,4 hPa 0,0 l/m 0 min 0 min 0 W/m 6,4 km/h (2 Bft) 95,74 %
25.01.2023 22:32 -1,1 C -1,7 C -3,9 C 93 % 1027,3 hPa 0,0 l/m 0 min 0 min 0 W/m 6,4 km/h (2 Bft) 95,74 %
25.01.2023 22:34 -1,1 C -1,7 C -3,9 C 93 % 1027,3 hPa 0,0 l/m 0 min 0 min 0 W/m 3,2 km/h (1 Bft) 93,48 %
25.01.2023 22:36 -1,1 C -1,7 C -3,9 C 93 % 1027,2 hPa 0,0 l/m 0 min 0 min 0 W/m 6,4 km/h (2 Bft) 95,74 %
25.01.2023 22:38 -1,1 C -1,7 C -3,9 C 93 % 1027,3 hPa 0,0 l/m 0 min 0 min 0 W/m 9,7 km/h (2 Bft) 95,74 %
25.01.2023 22:40 -1,1 C -1,7 C -3,9 C 93 % 1027,3 hPa 0,0 l/m 0 min 0 min 0 W/m 9,7 km/h (2 Bft) 93,62 %
25.01.2023 22:42 -1,1 C -1,7 C -3,9 C 93 % 1027,2 hPa 0,0 l/m 0 min 0 min 0 W/m 6,4 km/h (2 Bft) 95,74 %
25.01.2023 22:44 -1,1 C -1,7 C -3,9 C 93 % 1027,2 hPa 0,0 l/m 0 min 0 min 0 W/m 3,2 km/h (1 Bft) 95,74 %
25.01.2023 22:46 -1,1 C -1,7 C -3,9 C 93 % 1027,2 hPa 0,0 l/m 0 min 0 min 0 W/m 6,4 km/h (2 Bft) 91,49 %
25.01.2023 22:48 -1,1 C -1,7 C -3,9 C 93 % 1027,2 hPa 0,0 l/m 0 min 0 min 0 W/m 6,4 km/h (2 Bft) 95,65 %
25.01.2023 22:50 -1,1 C -1,7 C -3,9 C 93 % 1027,2 hPa 0,0 l/m 0 min 0 min 0 W/m 3,2 km/h (1 Bft) 89,36 %
25.01.2023 22:52 -1,1 C -1,7 C -3,9 C 93 % 1027,3 hPa 0,0 l/m 0 min 0 min 0 W/m 3,2 km/h (1 Bft) 91,49 %
25.01.2023 22:54 -1,1 C -1,7 C -3,9 C 93 % 1027,2 hPa 0,0 l/m 0 min 0 min 0 W/m 6,4 km/h (2 Bft) 97,87 %
25.01.2023 22:56 -1,1 C -1,7 C -3,9 C 93 % 1027,2 hPa 0,0 l/m 0 min 0 min 0 W/m 9,7 km/h (2 Bft) 97,87 %
25.01.2023 22:58 -1,1 C -1,7 C -3,9 C 93 % 1027,2 hPa 0,0 l/m 0 min 0 min 0 W/m 12,9 km/h (3 Bft) 91,49 %
25.01.2023 23:00 -1,1 C -1,7 C -4,4 C 93 % 1027,2 hPa 0,0 l/m 0 min 0 min 0 W/m 12,9 km/h (3 Bft) 95,65 %
25.01.2023 23:02 -1,1 C -1,7 C -4,4 C 93 % 1027,2 hPa 0,0 l/m 0 min 0 min 0 W/m 9,7 km/h (2 Bft) 93,62 %
25.01.2023 23:04 -1,1 C -1,7 C -4,4 C 93 % 1027,2 hPa 0,0 l/m 0 min 0 min 0 W/m 12,9 km/h (3 Bft) 95,74 %
25.01.2023 23:06 -1,2 C -1,7 C -4,4 C 93 % 1027,2 hPa 0,0 l/m 0 min 0 min 0 W/m 12,9 km/h (3 Bft) 97,87 %
25.01.2023 23:08 -1,2 C -1,7 C -4,4 C 93 % 1027,2 hPa 0,0 l/m 0 min 0 min 0 W/m 9,7 km/h (2 Bft) 100,00 %
25.01.2023 23:10 -1,2 C -1,7 C -4,4 C 93 % 1027,3 hPa 0,0 l/m 0 min 0 min 0 W/m 9,7 km/h (2 Bft) 97,87 %
25.01.2023 23:12 -1,2 C -1,7 C -4,4 C 93 % 1027,3 hPa 0,0 l/m 0 min 0 min 0 W/m 3,2 km/h (1 Bft) 97,87 %
25.01.2023 23:14 -1,2 C -1,7 C -4,4 C 93 % 1027,2 hPa 0,0 l/m 0 min 0 min 0 W/m 12,9 km/h (3 Bft) 97,83 %
25.01.2023 23:16 -1,2 C -1,7 C -4,4 C 93 % 1027,2 hPa 0,0 l/m 0 min 0 min 0 W/m 12,9 km/h (3 Bft) 95,74 %
25.01.2023 23:18 -1,2 C -1,7 C -4,4 C 93 % 1027,2 hPa 0,0 l/m 0 min 0 min 0 W/m 6,4 km/h (2 Bft) 97,87 %
25.01.2023 23:20 -1,3 C -1,7 C -4,4 C 93 % 1027,1 hPa 0,0 l/m 0 min 0 min 0 W/m 3,2 km/h (1 Bft) 97,87 %
25.01.2023 23:22 -1,3 C -1,7 C -4,4 C 93 % 1027,1 hPa 0,0 l/m 0 min 0 min 0 W/m 6,4 km/h (2 Bft) 97,87 %
25.01.2023 23:24 -1,3 C -1,7 C -4,4 C 93 % 1027,2 hPa 0,0 l/m 0 min 0 min 0 W/m 6,4 km/h (2 Bft) 97,87 %
25.01.2023 23:26 -1,3 C -1,7 C -4,4 C 93 % 1027,2 hPa 0,0 l/m 0 min 0 min 0 W/m 9,7 km/h (2 Bft) 97,83 %
25.01.2023 23:28 -1,3 C -1,7 C -4,4 C 93 % 1027,2 hPa 0,0 l/m 0 min 0 min 0 W/m 3,2 km/h (1 Bft) 97,87 %
25.01.2023 23:30 -1,3 C -1,7 C -4,4 C 93 % 1027,2 hPa 0,0 l/m 0 min 0 min 0 W/m 6,4 km/h (2 Bft) 97,87 %
25.01.2023 23:32 -1,3 C -1,7 C -4,4 C 93 % 1027,3 hPa 0,0 l/m 0 min 0 min 0 W/m 9,7 km/h (2 Bft) 93,62 %
25.01.2023 23:34 -1,3 C -1,7 C -4,4 C 93 % 1027,2 hPa 0,0 l/m 0 min 0 min 0 W/m 6,4 km/h (2 Bft) 97,87 %
25.01.2023 23:36 -1,3 C -1,7 C -4,4 C 93 % 1027,2 hPa 0,0 l/m 0 min 0 min 0 W/m 9,7 km/h (2 Bft) 97,87 %
25.01.2023 23:38 -1,3 C -2,2 C -4,4 C 93 % 1027,2 hPa 0,0 l/m 0 min 0 min 0 W/m 9,7 km/h (2 Bft) 97,83 %
25.01.2023 23:40 -1,4 C -2,2 C -4,4 C 93 % 1027,2 hPa 0,0 l/m 0 min 0 min 0 W/m 6,4 km/h (2 Bft) 97,87 %
25.01.2023 23:42 -1,4 C -2,2 C -4,4 C 93 % 1027,1 hPa 0,0 l/m 0 min 0 min 0 W/m 9,7 km/h (2 Bft) 97,87 %
25.01.2023 23:44 -1,4 C -2,2 C -4,4 C 93 % 1027,1 hPa 0,0 l/m 0 min 0 min 0 W/m 6,4 km/h (2 Bft) 97,87 %
25.01.2023 23:46 -1,4 C -2,2 C -4,4 C 93 % 1027,2 hPa 0,0 l/m 0 min 0 min 0 W/m 6,4 km/h (2 Bft) 97,87 %
25.01.2023 23:48 -1,4 C -2,2 C -4,4 C 93 % 1027,1 hPa 0,0 l/m 0 min 0 min 0 W/m 3,2 km/h (1 Bft) 97,87 %
25.01.2023 23:50 -1,4 C -2,2 C -4,4 C 93 % 1027,1 hPa 0,0 l/m 0 min 0 min 0 W/m 6,4 km/h (2 Bft) 95,74 %
25.01.2023 23:52 -1,4 C -2,2 C -4,4 C 93 % 1027,1 hPa 0,0 l/m 0 min 0 min 0 W/m 6,4 km/h (2 Bft) 97,83 %
25.01.2023 23:54 -1,5 C -1,7 C -4,4 C 93 % 1027,1 hPa 0,0 l/m 0 min 0 min 0 W/m 6,4 km/h (2 Bft) 97,87 %
25.01.2023 23:56 -1,4 C -2,2 C -4,4 C 93 % 1027,1 hPa 0,0 l/m 0 min 0 min 0 W/m 3,2 km/h (1 Bft) 97,87 %
25.01.2023 23:58 -1,4 C -2,2 C -4,4 C 93 % 1027,0 hPa 0,0 l/m 0 min 0 min 0 W/m 3,2 km/h (1 Bft) 97,87 %
_ Min-Zeit 23:54 23:38 22:26 00:07 23:58 - - - - 00:16 12:22
Minimum _ -1,5 C -2,2 C -4,4 C 87 % 1027,0 hPa - - - - 0,0 km/h (0 Bft) 39,39 %
_ Max-Zeit 00:00 00:00 00:00 10:18 00:00 00:00 00:00 00:00 13:00 15:58 00:04
Maximum _ 0,8 C 0,6 C -2,8 C 94 % 1038,2 hPa 0,0 l/m 0 min 0 min 44 W/m 19,3 km/h
S (3 Bft)
100,00 %
Durchschnitt _ -0,1 C -0,5 C -3,1 C 92 % 1032,9 hPa #0,0 l/m #0 min. #0 min. 25 W/m 4,8 km/h (1 Bft) 96,18 %
© 2023 W. Hausmann